N Moorhead Davis Vantage Pro2 /W Fan
3/1/18 1:00 AM : 1 Month
Date & Time Temp - F High Temp - F Low Temp - F Hum - % Dew Point - F Wind Speed - mph Wind Direction High Wind Speed - mph High Wind Direction Wind Chill - F Heat Index - F Barometer - in Hg Rain - in Rain Rate - in
3/1/18 0:00 11.9 12.6 11.9 84 8 0 -- 0 -- 11.9 11.8 30.015 0 0
3/1/18 0:30 15.2 15.3 11.5 85 11.5 0 -- 1 SW 15.2 15.1 30.015 0 0
3/1/18 1:00 13.5 15.2 12.3 88 10.6 0 -- 2 W 13.5 13.4 30.025 0 0
3/1/18 1:30 16.4 16.8 13.6 85 12.7 0 -- 3 WSW 16.4 16.3 30.026 0 0
3/1/18 2:00 15.4 16.4 15.3 86 12 0 -- 2 W 15.4 15.3 30.036 0 0
3/1/18 2:30 16.4 16.5 15.4 85 12.7 1 W 7 W 16.4 16.3 30.038 0 0
3/1/18 3:00 17.8 17.8 16.1 85 14.1 0 -- 4 W 17.8 17.6 30.039 0 0
3/1/18 3:30 18.2 18.3 17.8 83 13.9 3 W 7 W 13.7 18 30.037 0 0
3/1/18 4:00 17.8 18.5 17.8 83 13.5 3 W 9 WSW 13.3 17.6 30.045 0 0
3/1/18 4:30 17 17.8 16.9 83 12.7 2 W 7 W 14.5 16.9 30.05 0 0
3/1/18 5:00 15.9 17 15.9 83 11.7 2 W 7 WNW 13.3 15.8 30.06 0 0
3/1/18 5:30 15 15.9 15 83 10.8 2 WNW 7 W 12.3 14.9 30.07 0 0
3/1/18 6:00 14.1 15 14.1 83 9.9 1 WNW 7 WNW 14.1 14 30.084 0 0
3/1/18 6:30 11.5 14.2 11.5 80 6.5 0 -- 2 WNW 11.5 11.3 30.098 0 0
3/1/18 7:00 4.2 11.3 4.2 82 -0.1 0 -- 0 -- 4.2 4.1 30.111 0 0
3/1/18 7:30 4.2 5.2 4.1 81 -0.3 0 -- 0 -- 4.2 4.1 30.12 0 0
3/1/18 8:00 7.1 7.2 4 80 2.2 0 -- 0 -- 7.1 7 30.127 0 0
3/1/18 8:30 6.7 8.4 6.6 77 1 0 -- 2 E 6.7 6.5 30.143 0 0
3/1/18 9:00 11.2 11.2 6.4 77 5.4 0 -- 2 E 11.2 11 30.158 0 0
3/1/18 9:30 12.5 12.5 11.2 74 5.8 0 -- 2 ESE 12.5 12.3 30.162 0 0
3/1/18 10:00 20.4 20.4 12.5 73 13.1 1 WNW 8 WNW 20.4 20.1 30.181 0 0
3/1/18 10:30 22.1 22.3 20.5 70 13.8 1 NW 8 W 22.1 21.7 30.183 0 0
3/1/18 11:00 23.8 23.9 22 69 15.1 1 NW 7 WNW 23.8 23.4 30.193 0 0
3/1/18 11:30 24.3 24.6 23.4 69 15.6 2 WNW 8 NW 22.5 23.9 30.198 0 0
3/1/18 12:00 24.9 25 24.1 70 16.5 1 NW 4 NNW 24.9 24.5 30.206 0 0
3/1/18 12:30 23.4 24.8 23.1 73 16 1 ENE 4 NE 23.4 23.1 30.21 0 0
3/1/18 13:00 24.3 24.4 23.4 71 16.2 1 E 3 ESE 24.3 23.9 30.212 0 0
3/1/18 13:30 25.8 25.8 24.4 69 17 1 ESE 3 E 25.8 25.4 30.215 0 0
3/1/18 14:00 26.6 26.7 25.8 69 17.8 2 ESE 4 ESE 25 26.2 30.213 0 0
3/1/18 14:30 26.8 26.8 26.2 70 18.3 2 SSE 6 SSE 25.3 26.4 30.223 0 0
3/1/18 15:00 28.2 28.7 26.8 70 19.7 1 E 5 SSE 28.2 27.7 30.219 0 0
3/1/18 15:30 27.7 28.3 27.4 71 19.5 0 -- 3 E 27.7 27.2 30.225 0 0
3/1/18 16:00 27.1 27.7 26.7 71 18.9 1 ESE 4 SSE 27.1 26.7 30.234 0 0
3/1/18 16:30 27 27.3 26.8 71 18.8 2 SSE 4 SSE 25.5 26.6 30.245 0 0
3/1/18 17:00 26 27.1 26 71 17.9 1 ESE 4 SSE 26 25.6 30.243 0 0
3/1/18 17:30 24.1 26 24.1 73 16.7 1 SSE 4 SSE 24.1 23.8 30.248 0 0
3/1/18 18:00 22.2 24 22.2 75 15.5 0 -- 3 SE 22.2 21.9 30.256 0 0
3/1/18 18:30 20.9 22.2 20.9 77 14.8 1 S 5 SSE 20.9 20.6 30.268 0 0
3/1/18 19:00 19.3 20.9 19.3 78 13.6 1 SSE 4 S 19.3 19.1 30.275 0 0
3/1/18 19:30 18 19.3 18 80 12.9 1 S 4 SSE 18 17.8 30.283 0 0
3/1/18 20:00 17.1 18 17.1 82 12.6 1 S 5 SSE 17.1 16.9 30.291 0 0
3/1/18 20:30 16.3 17.4 16.3 83 12 1 SSE 5 SSE 16.3 16.2 30.298 0 0
3/1/18 21:00 16.1 16.4 15.9 84 12.1 1 S 5 SSE 16.1 16 30.308 0 0
3/1/18 21:30 15.8 16.1 15.8 85 12.1 1 SSE 4 S 15.8 15.7 30.315 0 0
3/1/18 22:00 13.9 15.8 13.9 85 10.2 1 SSE 3 SSE 13.9 13.8 30.313 0 0
3/1/18 22:30 12.4 13.9 12.4 86 9 1 SSE 4 SSE 12.4 12.3 30.317 0 0
3/1/18 23:00 11.4 12.4 11.3 87 8.3 2 SSE 5 SSE 8.3 11.3 30.317 0 0
3/1/18 23:30 11.3 11.5 11.2 86 7.9 2 SSE 6 SSE 8.2 11.2 30.307 0 0
3/2/18 0:00 11.6 11.6 10.8 86 8.2 1 SSE 4 SSE 11.6 11.5 30.305 0 0
3/2/18 0:30 11.8 12.1 11.6 86 8.4 0 -- 3 S 11.8 11.7 30.318 0 0
3/2/18 1:00 13.2 13.2 11.8 85 9.5 0 -- 3 SSW 13.2 13.1 30.339 0 0
3/2/18 1:30 12.5 13.2 12.5 85 8.8 0 -- 3 SSW 12.5 12.4 30.339 0 0
3/2/18 2:00 11.6 12.5 11.6 85 8 0 -- 3 SSE 11.6 11.5 30.331 0 0
3/2/18 2:30 10.1 11.6 10 84 6.2 0 -- 4 SSE 10.1 10 30.327 0 0
3/2/18 3:00 10.3 10.3 9.6 86 6.9 1 SSE 4 SSE 10.3 10.2 30.327 0 0
3/2/18 3:30 10.9 11 10.3 85 7.3 1 SSE 4 SSE 10.9 10.8 30.329 0 0
3/2/18 4:00 9.7 11 9.7 84 5.8 1 SSE 5 SSE 9.7 9.6 30.316 0 0
3/2/18 4:30 9.7 9.7 9.2 85 6.1 1 SSE 4 SSE 9.7 9.6 30.311 0 0
3/2/18 5:00 9.6 9.7 8.9 85 6 0 -- 3 SSE 9.6 9.5 30.315 0 0
3/2/18 5:30 10.5 10.5 9.2 86 7.1 0 -- 3 SSE 10.5 10.4 30.316 0 0
3/2/18 6:00 11.8 11.9 10.5 85 8.2 1 SSE 3 SSE 11.8 11.7 30.308 0 0
3/2/18 6:30 12.1 12.1 11.7 86 8.7 0 -- 0 -- 12.1 12 30.319 0 0
3/2/18 7:00 13.4 13.5 12.1 86 10 0 -- 0 -- 13.4 13.3 30.324 0 0
3/2/18 7:30 14.4 14.4 13.5 86 11 0 -- 0 -- 14.4 14.3 30.333 0 0
3/2/18 8:00 15 15.1 14.4 86 11.6 0 -- 1 SSE 15 14.9 30.335 0 0
3/2/18 8:30 16.7 16.7 15 86 13.2 0 -- 2 SSW 16.7 16.6 30.349 0 0
3/2/18 9:00 17.8 18 16.7 84 13.8 1 S 4 SSW 17.8 17.6 30.36 0 0
3/2/18 9:30 18.2 18.4 17.7 83 13.9 2 SSE 6 SSE 15.8 18 30.358 0 0
3/2/18 10:00 20 20.1 18.2 81 15.1 1 SSE 5 SSE 20 19.8 30.363 0 0
3/2/18 10:30 21.8 21.8 20 79 16.3 1 SE 6 ESE 21.8 21.6 30.352 0 0
3/2/18 11:00 23.3 23.3 21.8 78 17.5 3 SSE 8 SSE 19.5 23 30.356 0 0
3/2/18 11:30 26.8 26.8 23.3 75 19.9 3 SSE 9 SSE 23.4 26.4 30.346 0 0
3/2/18 12:00 27.9 27.9 26.8 74 20.7 5 SSE 10 SSE 22.3 27.5 30.333 0 0
3/2/18 12:30 29.9 30 27.9 74 22.6 4 SSE 10 SSE 25.7 29.5 30.31 0 0
3/2/18 13:00 31.4 31.4 29.9 72 23.4 4 SE 10 SSE 27.4 30.9 30.285 0 0
3/2/18 13:30 33.1 33.1 31.3 67 23.3 4 ESE 10 SE 29.3 32.5 30.267 0 0
3/2/18 14:00 34.3 34.3 33.1 64 23.4 4 SSE 11 SSE 30.7 33.7 30.252 0 0
3/2/18 14:30 35.2 35.2 34.3 63 23.9 3 SSE 8 S 32.9 34.5 30.263 0 0
3/2/18 15:00 35 35.3 35 63 23.7 1 SSE 6 S 35 34.4 30.268 0 0
3/2/18 15:30 34.8 35.2 34.6 65 24.2 0 -- 2 SE 34.8 34.2 30.274 0 0
3/2/18 16:00 34.8 34.9 34.2 70 26 1 ENE 6 NNE 34.8 34.3 30.272 0 0
3/2/18 16:30 36.2 36.2 34.8 59 23.2 1 ESE 7 ESE 36.2 35.4 30.271 0 0
3/2/18 17:00 35.6 36.2 35.6 63 24.2 1 ESE 3 ESE 35.6 34.9 30.256 0 0
3/2/18 17:30 34.8 35.6 34.8 64 23.9 2 E 4 ESE 34 34.2 30.248 0 0
3/2/18 18:00 34.8 35.2 34.7 60 22.3 4 ESE 9 SE 31.3 34.1 30.248 0 0
3/2/18 18:30 33.2 34.8 33.2 63 22 5 ESE 10 E 28.5 32.6 30.248 0 0
3/2/18 19:00 32.8 33.2 32.7 64 22 5 E 9 E 28 32.2 30.253 0 0
3/2/18 19:30 33.1 33.1 32.4 60 20.7 5 ESE 9 E 28.4 32.4 30.264 0 0
3/2/18 20:00 33.6 33.6 33.1 59 20.8 5 ESE 9 SE 29 32.9 30.271 0 0
3/2/18 20:30 32.8 33.6 32.7 63 21.6 3 ESE 8 ESE 30.2 32.2 30.272 0 0
3/2/18 21:00 32.8 32.9 32.7 64 22 3 ESE 7 ESE 30.2 32.2 30.271 0 0
3/2/18 21:30 33 33 32.7 64 22.1 3 ESE 8 SE 30.4 32.4 30.269 0 0
3/2/18 22:00 33 33.1 32.8 64 22.1 3 ESE 8 ESE 30.4 32.4 30.27 0 0
3/2/18 22:30 32.9 33 32.7 64 22 3 ESE 8 E 30.3 32.3 30.271 0 0
3/2/18 23:00 32.6 33 32.6 66 22.5 3 ESE 8 ESE 30 32 30.271 0 0
3/2/18 23:30 31.6 32.6 31.5 66 21.5 3 ESE 9 SE 28.9 31 30.27 0 0
3/3/18 0:00 31.4 31.6 31.1 66 21.3 3 ESE 7 E 28.6 30.8 30.267 0 0
3/3/18 0:30 30.8 31.4 30.8 66 20.8 4 ESE 8 ESE 26.7 30.2 30.26 0 0
3/3/18 1:00 30.7 31 30.6 66 20.7 5 ESE 11 SE 25.5 30.1 30.256 0 0
3/3/18 1:30 30.9 31.1 30.6 67 21.2 5 ESE 11 ESE 25.8 30.3 30.254 0 0
3/3/18 2:00 30.8 31 30.7 67 21.1 5 ESE 12 ESE 25.7 30.2 30.249 0 0
3/3/18 2:30 30.9 31.1 30.7 68 21.6 6 ESE 13 SE 24.9 30.4 30.237 0 0
3/3/18 3:00 30.6 30.9 30.6 68 21.3 6 ESE 12 SE 24.6 30.1 30.226 0 0
3/3/18 3:30 31 31 30.4 67 21.3 6 ESE 12 ESE 25 30.4 30.208 0 0
3/3/18 4:00 31.4 31.4 30.8 68 22.1 6 ESE 12 ESE 25.5 30.9 30.203 0 0
3/3/18 4:30 32.1 32.2 31.3 68 22.7 7 ESE 14 ESE 25.6 31.6 30.195 0 0
3/3/18 5:00 32.8 32.8 32.2 67 23 7 ESE 12 ESE 26.5 32.2 30.194 0 0
3/3/18 5:30 32.8 33 32.8 68 23.4 7 ESE 12 ESE 26.5 32.3 30.191 0 0
3/3/18 6:00 32.9 33 32.7 67 23.1 7 ESE 15 ESE 26.6 32.3 30.183 0 0
3/3/18 6:30 32.8 33 32.7 67 23 6 ESE 17 SE 27.2 32.2 30.181 0 0
3/3/18 7:00 32.2 32.7 31.9 68 22.8 6 ESE 13 ESE 26.5 31.7 30.176 0 0
3/3/18 7:30 32.5 32.5 32.1 67 22.8 6 ESE 12 SSE 26.8 31.9 30.185 0 0
3/3/18 8:00 32.8 32.8 32.4 68 23.4 7 ESE 12 E 26.5 32.3 30.179 0 0
3/3/18 8:30 33.4 33.5 32.8 67 23.6 7 ESE 13 ESE 27.2 32.8 30.177 0 0
3/3/18 9:00 34.3 34.3 33.3 66 24.1 8 ESE 14 SE 27.6 33.7 30.174 0 0
3/3/18 9:30 34.5 34.5 33.8 67 24.7 7 ESE 15 SSE 28.5 33.9 30.173 0 0
3/3/18 10:00 35.6 35.6 34.4 66 25.4 7 ESE 15 ESE 29.8 35 30.173 0 0
3/3/18 10:30 37 37 35.6 64 25.9 7 ESE 13 SE 31.5 36.3 30.166 0 0
3/3/18 11:00 37.7 37.8 37 64 26.6 7 ESE 16 ESE 32.4 37 30.158 0 0
3/3/18 11:30 38.4 38.4 37.7 65 27.7 6 ESE 13 ESE 33.9 37.7 30.155 0 0
3/3/18 12:00 39.3 39.3 38.4 64 28.1 5 ESE 13 ESE 35.7 38.6 30.148 0 0
3/3/18 12:30 39.7 39.8 39.2 63 28.1 6 ESE 12 ESE 35.4 39 30.136 0 0
3/3/18 13:00 40.2 40.2 39.7 62 28.2 6 ESE 13 ESE 36 39.4 30.131 0 0
3/3/18 13:30 40.5 40.6 40.2 63 28.9 6 ESE 12 ESE 36.3 39.8 30.119 0 0
3/3/18 14:00 40.7 40.7 40.3 62 28.7 6 ESE 11 E 36.6 39.9 30.106 0 0
3/3/18 14:30 40.3 40.8 40.2 63 28.7 6 ESE 11 ESE 36.1 39.6 30.097 0 0
3/3/18 15:00 41.2 41.2 39.8 62 29.2 5 ESE 11 ESE 37.8 40.4 30.103 0 0
3/3/18 15:30 41.2 41.4 40.9 62 29.2 5 ESE 9 ESE 37.8 40.4 30.095 0 0
3/3/18 16:00 41.5 41.6 41.2 62 29.4 5 ESE 10 SE 38.2 40.7 30.088 0 0
3/3/18 16:30 40.7 41.7 40.6 63 29.1 5 SE 14 SE 37.3 40 30.111 0 0
3/3/18 17:00 39.7 40.7 39.7 65 28.9 4 SE 12 SSE 37 39 30.108 0 0
3/3/18 17:30 38.9 39.7 38.7 68 29.2 2 SSE 8 SE 38.6 38.3 30.116 0 0
3/3/18 18:00 38.1 39 38.1 70 29.2 2 SE 7 ESE 37.7 37.5 30.12 0 0
3/3/18 18:30 38 38.2 37.9 70 29.1 2 SE 6 ESE 37.6 37.4 30.123 0 0
3/3/18 19:00 37.8 38.1 37.8 71 29.2 1 SE 7 ESE 37.8 37.2 30.127 0 0
3/3/18 19:30 37.4 37.8 37.2 72 29.2 1 SE 6 ESE 37.4 36.9 30.121 0 0
3/3/18 20:00 37.7 37.7 37.3 71 29.1 3 SE 10 ESE 35.8 37.1 30.106 0 0
3/3/18 20:30 38 38.1 37.7 70 29.1 3 SE 9 SSE 36.1 37.4 30.115 0 0
3/3/18 21:00 38 38.2 37.9 70 29.1 3 SE 10 ESE 36.1 37.4 30.11 0 0
3/3/18 21:30 38.2 38.4 37.9 70 29.3 3 SE 8 SE 36.3 37.6 30.109 0 0
3/3/18 22:00 37.9 38.2 37.9 70 29 4 ESE 13 ESE 34.9 37.3 30.099 0 0
3/3/18 22:30 37.9 38.1 37.9 70 29 5 ESE 12 ESE 34 37.3 30.094 0 0
3/3/18 23:00 38.1 38.2 37.8 69 28.8 5 SE 12 SSE 34.2 37.5 30.094 0 0
3/3/18 23:30 38.1 38.1 37.9 69 28.8 4 ESE 12 ESE 35.1 37.5 30.088 0 0
3/4/18 0:00 38.2 38.3 38 67 28.2 5 ESE 12 ESE 34.4 37.5 30.08 0 0
3/4/18 0:30 38.4 38.4 38.2 67 28.4 5 SE 11 SE 34.6 37.7 30.076 0 0
3/4/18 1:00 38.2 38.4 38.1 67 28.2 4 SE 11 ESE 35.2 37.5 30.079 0 0
3/4/18 1:30 38.1 38.3 38 68 28.5 4 SE 11 ESE 35.1 37.5 30.073 0 0
3/4/18 2:00 37.9 38.2 37.8 68 28.3 4 SE 11 ESE 34.9 37.3 30.063 0 0
3/4/18 2:30 37.7 37.9 37.7 68 28.1 4 SE 10 SSE 34.7 37.1 30.06 0 0
3/4/18 3:00 37.5 37.9 37.5 69 28.2 4 SE 11 ESE 34.4 36.9 30.038 0 0
3/4/18 3:30 37.3 37.6 37.2 69 28.1 4 SE 12 ESE 34.2 36.7 30.032 0 0
3/4/18 4:00 37 37.3 37 69 27.8 5 SE 12 SE 32.9 36.4 30.024 0 0
3/4/18 4:30 36.6 37.1 36.6 70 27.7 5 SE 11 SE 32.5 36 30.031 0 0
3/4/18 5:00 36 36.6 36 71 27.5 5 SE 12 SSE 31.8 35.4 30.029 0 0
3/4/18 5:30 35.7 36 35.6 71 27.2 5 SE 13 ESE 31.4 35.2 30.027 0 0
3/4/18 6:00 35.1 35.6 35.1 71 26.6 4 SE 11 SE 31.7 34.6 30.019 0 0
3/4/18 6:30 35 35.2 35 71 26.5 4 SE 12 SE 31.5 34.5 30.018 0 0
3/4/18 7:00 35.1 35.1 34.8 71 26.6 5 SE 14 ESE 30.7 34.6 30.013 0 0
3/4/18 7:30 35.2 35.3 35 71 26.7 5 SE 13 SE 30.8 34.7 30.009 0 0
3/4/18 8:00 35.8 35.8 35.2 72 27.7 5 SE 13 ESE 31.5 35.3 30.011 0 0
3/4/18 8:30 36.6 36.6 35.7 71 28.1 6 SE 15 ESE 31.7 36 30.003 0 0
3/4/18 9:00 36.7 36.8 36.6 71 28.2 6 SE 15 ESE 31.8 36.1 30.001 0 0
3/4/18 9:30 36.5 36.8 36.4 72 28.3 5 ESE 12 SE 32.4 36 30.007 0 0
3/4/18 10:00 37.1 37.1 36.5 71 28.6 7 ESE 15 ESE 31.6 36.5 29.995 0 0
3/4/18 10:30 37 37.3 37 70 28.1 7 SE 14 ESE 31.5 36.4 29.978 0 0
3/4/18 11:00 37.6 37.6 37 70 28.7 8 ESE 17 SSE 31.7 37 29.959 0 0
3/4/18 11:30 37.7 38 37.6 70 28.8 8 ESE 16 SE 31.8 37.1 29.951 0 0
3/4/18 12:00 37.5 37.7 37.5 70 28.6 8 ESE 16 SE 31.5 36.9 29.955 0 0
3/4/18 12:30 37.3 37.6 37.3 71 28.8 7 ESE 15 SE 31.9 36.7 29.954 0 0
3/4/18 13:00 37.5 37.6 37.3 71 28.9 7 ESE 14 ESE 32.1 36.9 29.938 0 0
3/4/18 13:30 37.4 37.7 37.3 72 29.2 8 ESE 16 SE 31.4 36.9 29.925 0 0
3/4/18 14:00 37.6 37.8 37.2 72 29.4 9 ESE 16 SE 31.1 37.1 29.901 0 0
3/4/18 14:30 37.9 37.9 37.6 72 29.7 10 ESE 19 ESE 31 37.4 29.893 0 0
3/4/18 15:00 37.5 38.2 37.4 73 29.6 9 ESE 17 SE 31 37 29.885 0 0
3/4/18 15:30 36.8 37.5 36.8 74 29.3 9 ESE 16 ESE 30.2 36.4 29.878 0 0
3/4/18 16:00 36.4 36.8 36.4 76 29.6 9 ESE 18 ESE 29.7 36 29.868 0 0
3/4/18 16:30 36.3 36.5 36.2 76 29.5 8 ESE 16 SE 30.1 35.9 29.855 0 0
3/4/18 17:00 36.6 36.6 36.2 75 29.4 8 ESE 15 ESE 30.4 36.2 29.85 0 0
3/4/18 17:30 36.6 36.8 36.4 75 29.4 9 ESE 18 E 29.9 36.2 29.851 0 0
3/4/18 18:00 36.6 36.7 36.5 75 29.4 8 ESE 18 ESE 30.4 36.2 29.85 0 0
3/4/18 18:30 36.8 36.9 36.6 73 29 7 SE 18 E 31.3 36.3 29.862 0 0
3/4/18 19:00 36.8 36.8 36.5 73 29 7 SE 15 ESE 31.3 36.3 29.878 0 0
3/4/18 19:30 36.8 36.8 36.4 72 28.6 6 SE 16 SSE 31.9 36.3 29.873 0 0
3/4/18 20:00 36.8 36.9 36.4 71 28.3 8 SSE 20 SE 30.7 36.2 29.871 0 0
3/4/18 20:30 36.4 36.9 36.2 73 28.6 7 SE 15 SE 30.8 35.9 29.871 0 0
3/4/18 21:00 36.6 36.6 36.4 70 27.7 8 SE 19 SE 30.4 36 29.856 0 0
3/4/18 21:30 36.3 36.7 36.3 71 27.8 8 SE 21 SE 30.1 35.7 -- 0 0
3/4/18 22:00 36.4 36.6 36.4 71 27.9 8 SE 18 ESE 30.2 35.8 29.898 0 0
3/4/18 22:30 36.4 36.5 36.3 72 28.2 8 SE 17 ESE 30.2 35.9 29.891 0 0
3/4/18 23:00 36.4 36.4 36.2 72 28.2 8 SE 19 SE 30.2 35.9 29.881 0 0
3/4/18 23:30 35.9 36.4 35.9 74 28.4 7 SE 17 SSE 30.2 35.5 29.876 0 0
3/5/18 0:00 36 36.2 35.9 74 28.5 8 SE 18 SSE 29.7 35.6 29.871 0 0
3/5/18 0:30 35.9 36 35.8 75 28.7 8 SE 20 SE 29.6 35.5 29.868 0 0
3/5/18 1:00 35.5 35.9 35.5 77 29 8 SE 19 E 29.1 35.1 29.868 0 0
3/5/18 1:30 35.2 35.6 35.1 78 29 8 SE 18 SE 28.7 34.9 29.864 0 0
3/5/18 2:00 34.1 35.2 34 82 29.2 8 SE 19 SE 27.4 33.8 29.85 0 0
3/5/18 2:30 33.6 34.1 33.6 84 29.3 7 SE 19 SSE 27.4 33.3 29.841 0 0
3/5/18 3:00 33.4 34 33.3 84 29.1 7 SE 17 SSE 27.2 33.1 29.824 0 0
3/5/18 3:30 33.1 33.5 33.1 85 29.1 7 ESE 14 SE 26.8 32.9 29.82 0 0
3/5/18 4:00 32.6 33.1 32.6 87 29.2 7 ESE 17 SE 26.2 32.4 29.817 0 0
3/5/18 4:30 32.4 32.6 32.3 88 29.2 7 ESE 15 ESE 26 32.2 29.807 0 0
3/5/18 5:00 32.2 32.4 32.2 90 29.6 7 ESE 14 E 25.7 32.1 29.805 0 0
3/5/18 5:30 32.1 32.2 32 90 29.5 7 ESE 14 ESE 25.6 32 29.799 0 0
3/5/18 6:00 31.8 32.1 31.8 90 29.2 8 ESE 17 ESE 24.6 31.7 29.795 0 0
3/5/18 6:30 32.2 32.2 31.7 89 29.3 7 ESE 13 ESE 25.7 32.1 29.789 0 0
3/5/18 7:00 32.7 32.9 32.1 85 28.7 8 ESE 17 ESE 25.7 32.5 29.788 0 0
3/5/18 7:30 31.8 32.8 31.7 90 29.2 8 ESE 18 ESE 24.6 31.7 29.779 0 0
3/5/18 8:00 32 32 31.7 89 29.1 9 ESE 17 SE 24.3 31.9 29.769 0 0
3/5/18 8:30 32.1 32.2 31.9 89 29.2 8 ESE 15 ESE 25 32 29.769 0 0
3/5/18 9:00 32.2 32.2 32 89 29.3 8 ESE 16 ESE 25.1 32.1 29.761 0 0
3/5/18 9:30 32.4 32.5 32.2 87 29 10 ESE 18 ESE 24.2 32.2 29.755 0 0
3/5/18 10:00 32.8 32.8 32.4 85 28.8 10 ESE 19 ESE 24.7 32.6 29.75 0 0
3/5/18 10:30 32.6 33.1 32.6 85 28.6 10 ESE 18 SE 24.5 32.4 29.75 0 0
3/5/18 11:00 31.9 32.8 31.9 88 28.8 9 ESE 21 ESE 24.1 31.8 29.745 0 0
3/5/18 11:30 32 32.2 31.8 87 28.6 9 ESE 18 ESE 24.3 31.8 29.738 0 0
3/5/18 12:00 32.3 32.6 32 85 28.3 9 ESE 17 E 24.6 32.1 29.74 0 0
3/5/18 12:30 32.3 32.3 32.1 85 28.3 10 ESE 16 ESE 24.1 32.1 29.732 0 0
3/5/18 13:00 32.2 32.8 32.2 84 27.9 11 ESE 24 ESE 23.5 32 29.732 0 0
3/5/18 13:30 31.9 32.5 31.9 86 28.2 10 ESE 18 ESE 23.6 31.7 29.732 0 0
3/5/18 14:00 32.3 32.4 31.6 84 28 8 ESE 16 ESE 25.2 32.1 29.723 0 0
3/5/18 14:30 32.1 32.4 32 86 28.4 10 ESE 17 E 23.9 31.9 29.725 0 0
3/5/18 15:00 32.3 32.4 31.9 86 28.6 7 ESE 13 E 25.9 32.1 29.727 0 0
3/5/18 15:30 32.5 32.6 32.1 86 28.8 9 ESE 17 ESE 24.9 32.3 29.732 0 0
3/5/18 16:00 33 33 32.4 84 28.7 9 ESE 16 E 25.5 32.8 29.735 0 0
3/5/18 16:30 32.8 33.2 32.8 86 29.1 9 ESE 16 E 25.2 32.6 29.737 0 0
3/5/18 17:00 32.6 32.9 32.6 84 28.3 10 ESE 24 E 24.5 32.4 29.75 0 0
3/5/18 17:30 32.3 32.7 32.3 87 28.9 9 ESE 18 ESE 24.6 32.1 29.754 0 0
3/5/18 18:00 31.4 32.3 31.4 86 27.7 7 ENE 15 ENE 24.8 31.2 29.763 0 0
3/5/18 18:30 30.8 31.5 30.7 87 27.4 7 ENE 16 ENE 24.1 30.6 29.775 0 0
3/5/18 19:00 30.7 30.8 30.6 83 26.1 6 ENE 12 NE 24.7 30.5 29.782 0 0
3/5/18 19:30 29.6 30.7 29.6 87 26.2 7 ENE 15 NE 22.6 29.4 29.785 0 0
3/5/18 20:00 29.6 29.6 29.4 84 25.4 7 ENE 14 E 22.6 29.4 29.79 0 0
3/5/18 20:30 29.7 29.8 29.6 82 24.9 7 ENE 16 ENE 22.7 29.4 29.804 0 0
3/5/18 21:00 28.8 29.7 28.8 85 24.9 8 ENE 20 NNE 20.9 28.6 29.812 0 0
3/5/18 21:30 28.4 28.8 28.2 85 24.5 6 ENE 13 ENE 21.9 28.2 29.817 0 0
3/5/18 22:00 28.8 28.8 28.4 81 23.7 6 ENE 14 E 22.4 28.5 29.824 0 0
3/5/18 22:30 28.8 29 28.7 79 23.1 7 ENE 16 ENE 21.6 28.5 29.834 0 0
3/5/18 23:00 28.3 28.9 28.3 79 22.6 7 ENE 13 ENE 21 28 29.85 0 0
3/5/18 23:30 27.3 28.4 27.3 80 21.9 6 ENE 13 NE 20.6 27 29.853 0 0
3/6/18 0:00 26.8 27.4 26.7 81 21.8 4 NE 11 NE 22.1 26.5 29.857 0 0
3/6/18 0:30 26.4 26.9 26.3 81 21.4 4 NNE 9 NNE 21.6 26.1 29.863 0 0
3/6/18 1:00 26.3 26.4 26.1 80 21 4 NNE 10 N 21.5 26 29.874 0 0
3/6/18 1:30 26.5 26.6 26.3 80 21.2 5 NE 14 NE 20.6 26.2 29.885 0 0
3/6/18 2:00 26.3 26.5 26.2 79 20.7 6 ENE 14 NE 19.4 26 29.885 0 0
3/6/18 2:30 25.3 26.3 25.3 80 20 5 NE 10 NE 19.2 25 29.885 0 0
3/6/18 3:00 24.4 25.4 24.4 80 19.1 4 NE 11 NE 19.3 24.1 29.889 0 0
3/6/18 3:30 23.4 24.4 23.4 82 18.7 4 NNE 8 NNE 18.1 23.1 29.906 0 0
3/6/18 4:00 24.6 24.6 23.4 80 19.3 4 NNE 10 NNE 19.5 24.3 29.918 0 0
3/6/18 4:30 24.9 25 24.4 80 19.6 4 NNE 8 NNE 19.9 24.6 29.934 0 0
3/6/18 5:00 24.5 25 24.5 79 18.9 4 N 10 N 19.4 24.2 29.952 0 0
3/6/18 5:30 24.6 24.6 24.4 79 19 5 N 11 N 18.4 24.3 29.959 0 0
3/6/18 6:00 24.5 24.8 24.4 75 17.7 5 N 13 N 18.3 24.2 29.969 0 0
3/6/18 6:30 23.8 24.5 23.8 75 17 7 N 14 NNW 15.6 23.5 29.984 0 0
3/6/18 7:00 23.6 23.9 23.6 73 16.2 8 NNE 14 N 14.6 23.3 30.006 0 0
3/6/18 7:30 23.4 23.6 23.3 76 16.9 7 NNE 14 NNE 15.1 23.1 30.018 0 0
3/6/18 8:00 22.8 23.4 22.8 73 15.4 8 NNE 14 NNW 13.6 22.5 30.029 0 0
3/6/18 8:30 21.3 23 21.3 72 13.7 6 NNE 12 NNE 13.5 21 30.04 0 0
3/6/18 9:00 22.5 22.8 20.8 71 14.5 6 N 13 NNE 14.9 22.1 30.048 0 0
3/6/18 9:30 23.4 23.6 22.4 71 15.4 8 N 15 NE 14.4 23 30.069 0 0
3/6/18 10:00 24 24.3 23.3 69 15.3 9 NNE 18 NNE 14.4 23.6 30.088 0 0
3/6/18 10:30 23.9 24.1 23.4 70 15.5 8 N 17 N 15 23.5 30.099 0 0
3/6/18 11:00 24.5 24.8 23.8 70 16.1 6 N 14 NNE 17.3 24.1 30.111 0 0
3/6/18 11:30 24.2 24.9 24.2 71 16.1 5 N 13 NNW 17.9 23.8 30.119 0 0
3/6/18 12:00 23.9 24.8 23.8 71 15.9 5 N 15 NE 17.6 23.5 30.124 0 0
3/6/18 12:30 24.1 24.2 23.7 71 16.1 5 N 12 N 17.8 23.7 30.124 0 0
3/6/18 13:00 24.8 24.9 24.1 69 16.1 4 N 11 N 19.8 24.4 30.125 0 0
3/6/18 13:30 24.4 25 24.3 70 16 6 N 13 N 17.2 24 30.135 0 0
3/6/18 14:00 22.7 24.8 22.7 70 14.4 4 NNW 16 NNE 17.3 22.3 30.148 0 0
3/6/18 14:30 23.4 23.6 22.1 68 14.4 5 NW 14 NW 17 23 30.157 0 0
3/6/18 15:00 22.3 23.6 22.3 69 13.7 5 NNW 14 NNW 15.7 21.9 30.167 0 0
3/6/18 15:30 22.8 22.8 22 70 14.5 5 NW 15 NW 16.3 22.4 30.174 0 0
3/6/18 16:00 22.4 23.3 22.4 68 13.4 4 NNW 14 N 17 22 30.182 0 0
3/6/18 16:30 21.6 22.4 21.4 72 14 6 N 13 N 13.8 21.3 30.185 0 0
3/6/18 17:00 20.7 21.6 20.7 73 13.4 5 N 12 NW 13.8 20.4 30.195 0 0
3/6/18 17:30 19.9 20.7 19.8 73 12.6 4 N 13 NNW 14.1 19.6 30.199 0 0
3/6/18 18:00 18.5 19.9 18.4 75 11.9 3 NNW 10 NNE 14 18.2 30.209 0 0
3/6/18 18:30 17.5 18.5 17.4 76 11.2 3 NW 10 NNW 12.9 17.3 30.208 0 0
3/6/18 19:00 16.8 17.7 16.8 75 10.2 2 NNW 11 NNW 14.3 16.6 30.209 0 0
3/6/18 19:30 16.2 16.8 16.2 74 9.4 3 NW 10 NW 11.4 16 30.207 0 0
3/6/18 20:00 15.3 16.2 15.3 73 8.2 2 NW 11 NW 12.6 15.1 30.205 0 0
3/6/18 20:30 14.6 15.3 14.6 72 7.2 2 NNW 10 N 11.8 14.3 30.206 0 0
3/6/18 21:00 13.1 14.6 12.9 74 6.4 2 N 9 NE 10.2 12.9 30.202 0 0
3/6/18 21:30 11.2 13.1 11.1 76 5.1 2 N 7 N 8.1 11 30.201 0 0
3/6/18 22:00 9.5 11.2 9.4 79 4.3 0 -- 4 NNE 9.5 9.4 30.197 0 0
3/6/18 22:30 10.9 10.9 9.5 77 5.1 1 NW 7 W 10.9 10.7 30.202 0 0
3/6/18 23:00 8.8 10.9 8.8 78 3.3 4 WNW 9 WNW 1.3 8.7 30.21 0 0
3/6/18 23:30 8 8.8 8 78 2.6 2 WNW 9 WNW 4.6 7.9 30.186 0 0
3/7/18 0:00 8.9 8.9 7.7 79 3.7 1 WNW 4 WNW 8.9 8.8 30.19 0 0
3/7/18 0:30 9 9.3 8.9 78 3.5 3 WNW 12 WNW 3.3 8.9 30.203 0 0
3/7/18 1:00 9 9.2 8.9 79 3.8 5 WNW 12 WNW 0.1 8.9 30.199 0 0
3/7/18 1:30 7.8 9.1 7.8 79 2.6 2 WNW 8 NW 4.4 7.7 30.183 0 0
3/7/18 2:00 8.9 8.9 7.8 79 3.7 1 WNW 7 WNW 8.9 8.8 30.177 0 0
3/7/18 2:30 8.2 9.1 8.2 78 2.8 2 WNW 8 WNW 4.8 8.1 30.181 0 0
3/7/18 3:00 7.8 8.3 7.8 79 2.6 3 WNW 8 WNW 1.9 7.7 30.185 0 0
3/7/18 3:30 8.1 8.3 7.8 79 2.9 4 WNW 9 WNW 0.5 8 30.18 0 0
3/7/18 4:00 7.9 8.2 7.9 78 2.5 1 NW 7 WNW 7.9 7.8 30.171 0 0
3/7/18 4:30 6.1 7.8 6.1 80 1.3 0 -- 5 NW 6.1 6 30.17 0 0
3/7/18 5:00 5.9 6.1 5.1 80 1.1 0 -- 6 W 5.9 5.8 30.176 0 0
3/7/18 5:30 5.3 5.8 5.3 80 0.5 2 WNW 6 WNW 1.6 5.2 30.178 0 0
3/7/18 6:00 5 5.4 4.9 80 0.2 1 NW 6 W 5 4.9 30.181 0 0
3/7/18 6:30 3.2 4.9 3.2 81 -1.3 0 -- 3 NW 3.2 3.1 30.177 0 0
3/7/18 7:00 4.1 4.1 3.1 81 -0.4 0 -- 6 W 4.1 4 30.187 0 0
3/7/18 7:30 4.3 4.4 4 80 -0.5 2 WNW 9 WNW 0.5 4.2 30.148 0 0
3/7/18 8:00 5.8 5.9 4.2 79 0.7 1 NW 7 WNW 5.8 5.7 30.145 0 0
3/7/18 8:30 7.9 8.3 5.9 74 1.3 0 -- 3 WNW 7.9 7.7 30.149 0 0
3/7/18 9:00 7.9 8.1 7.5 75 1.6 3 WNW 8 WNW 2.1 7.7 30.15 0 0
3/7/18 9:30 10.1 10.1 7.9 73 3.2 2 WNW 7 WNW 6.9 9.9 30.157 0 0
3/7/18 10:00 12.8 12.8 10.1 70 4.9 2 NW 8 WNW 9.9 12.5 30.167 0 0
3/7/18 10:30 14.5 14.7 12.7 69 6.2 2 NW 7 WNW 11.7 14.2 30.164 0 0
3/7/18 11:00 15.9 16 14.3 69 7.5 2 NW 8 WNW 13.3 15.6 30.163 0 0
3/7/18 11:30 16.4 16.5 15.6 70 8.3 3 NW 10 W 11.7 16.1 30.17 0 0
3/7/18 12:00 17.3 17.4 16.1 70 9.2 3 NW 10 W 12.7 17 30.171 0 0
3/7/18 12:30 17.7 18.3 17.1 69 9.2 3 NW 9 WNW 13.1 17.4 30.17 0 0
3/7/18 13:00 19.2 19.2 17.7 68 10.4 3 NW 11 NW 14.8 18.9 30.163 0 0
3/7/18 13:30 20 20.1 19 67 10.8 3 NW 13 N 15.7 19.6 30.159 0 0
3/7/18 14:00 20.8 21 20 67 11.6 2 NNW 9 N 18.7 20.4 30.157 0 0
3/7/18 14:30 21.5 21.7 20.8 65 11.5 4 NNW 10 N 15.9 21.1 30.164 0 0
3/7/18 15:00 21.6 22.3 21.3 66 12 3 NW 11 NW 17.6 21.2 30.165 0 0
3/7/18 15:30 21.9 22 21.3 66 12.3 3 NNW 9 WNW 17.9 21.5 30.167 0 0
3/7/18 16:00 21.7 21.9 21.5 65 11.7 3 NNW 10 N 17.7 21.3 30.173 0 0
3/7/18 16:30 21.2 21.9 21.2 65 11.3 3 NW 13 NW 17.1 20.8 30.182 0 0
3/7/18 17:00 21.1 21.2 20.8 66 11.5 2 NW 9 WNW 19 20.7 30.186 0 0
3/7/18 17:30 20.2 21.3 20.2 67 11 2 WNW 10 NW 18 19.8 30.191 0 0
3/7/18 18:00 19.4 20.2 19.4 69 10.9 2 WNW 7 WNW 17.1 19.1 30.188 0 0
3/7/18 18:30 18.5 19.4 18.5 71 10.7 2 WNW 8 WNW 16.1 18.2 30.183 0 0
3/7/18 19:00 17.7 18.5 17.7 74 10.8 3 WNW 11 NW 13.1 17.4 30.188 0 0
3/7/18 19:30 16.5 17.9 16.4 75 10 3 NW 11 WNW 11.8 16.3 30.188 0 0
3/7/18 20:00 15.1 16.5 15 77 9.2 1 NW 8 W 15.1 14.9 30.19 0 0
3/7/18 20:30 14 15.3 14 78 8.4 1 NW 5 WNW 14 13.8 30.194 0 0
3/7/18 21:00 12.3 14 12.3 79 7 0 -- 2 NW 12.3 12.1 30.188 0 0
3/7/18 21:30 10.9 12.3 10.9 81 6.2 0 -- 3 WNW 10.9 10.7 30.188 0 0
3/7/18 22:00 10.6 11 10.5 81 5.9 0 -- 0 -- 10.6 10.5 30.193 0 0
3/7/18 22:30 10.6 10.7 10.4 81 5.9 0 -- 2 WNW 10.6 10.5 30.193 0 0
3/7/18 23:00 10.7 10.7 10.3 81 6 0 -- 2 WNW 10.7 10.5 30.189 0 0
3/7/18 23:30 9.6 10.7 9.6 81 4.9 0 -- 1 WNW 9.6 9.5 30.193 0 0
3/8/18 0:00 9.8 9.9 9.6 82 5.4 0 -- 2 WNW 9.8 9.7 30.191 0 0
3/8/18 0:30 11.1 11.2 9.7 83 6.9 1 W 5 WNW 11.1 11 30.188 0 0
3/8/18 1:00 11.1 11.3 11.1 84 7.2 1 W 4 WSW 11.1 11 30.184 0 0
3/8/18 1:30 11.8 11.8 11.2 84 7.9 1 WNW 4 W 11.8 11.7 30.178 0 0
3/8/18 2:00 12 12.1 11.7 84 8.1 1 WNW 5 WNW 12 11.9 30.179 0 0
3/8/18 2:30 13.1 13.1 12 84 9.2 1 WNW 5 WNW 13.1 13 30.173 0 0
3/8/18 3:00 14.5 14.5 13.1 84 10.5 1 WNW 6 WNW 14.5 14.4 30.168 0 0
3/8/18 3:30 15.5 15.5 14.5 83 11.3 2 WNW 4 WNW 12.8 15.4 30.164 0 0
3/8/18 4:00 16.2 16.3 15.5 83 11.9 1 WNW 7 WNW 16.2 16.1 30.161 0 0
3/8/18 4:30 17.4 17.4 16.2 83 13.1 2 WNW 7 W 14.9 17.2 30.16 0 0
3/8/18 5:00 17.3 17.5 17.3 83 13 3 WNW 8 W 12.7 17.1 30.156 0 0
3/8/18 5:30 17.3 17.4 17.3 83 13 3 WNW 7 WNW 12.7 17.1 30.157 0 0
3/8/18 6:00 17.4 17.5 17.3 83 13.1 2 WNW 7 WNW 14.9 17.2 30.159 0 0
3/8/18 6:30 17 17.4 17 82 12.5 2 WNW 6 WNW 14.5 16.8 30.155 0 0
3/8/18 7:00 16.4 17 16.4 82 11.9 2 WNW 7 WNW 13.8 16.2 30.152 0 0
3/8/18 7:30 15.2 16.4 15.2 82 10.7 1 WNW 6 WNW 15.2 15 30.145 0 0
3/8/18 8:00 15.9 15.9 15.2 80 10.8 1 WNW 4 WNW 15.9 15.7 30.144 0 0
3/8/18 8:30 17.4 17.4 15.8 78 11.7 1 WNW 6 WNW 17.4 17.2 30.145 0 0
3/8/18 9:00 18.4 18.5 17.3 74 11.5 1 NNW 4 WNW 18.4 18.1 30.143 0 0
3/8/18 9:30 19.4 19.4 18.1 73 12.2 1 NW 4 NW 19.4 19.1 30.142 0 0
3/8/18 10:00 20.5 20.5 18.8 72 12.9 1 NW 4 NW 20.5 20.2 30.139 0 0
3/8/18 10:30 20.8 20.9 19.9 72 13.2 1 N 4 N 20.8 20.5 30.133 0 0
3/8/18 11:00 21.8 22.1 20.6 71 13.8 1 W 6 W 21.8 21.4 30.129 0 0
3/8/18 11:30 21.7 22.2 20.9 74 14.7 1 ENE 4 NE 21.7 21.4 30.12 0 0
3/8/18 12:00 21 21.7 20.6 76 14.6 2 NE 4 E 18.9 20.7 30.109 0 0
3/8/18 12:30 22 22 20.5 74 15 2 NE 5 NE 20 21.7 30.107 0 0
3/8/18 13:00 23.3 23.3 21.8 75 16.5 2 ENE 5 NE 21.4 23 30.089 0 0
3/8/18 13:30 23.5 23.9 23.1 72 15.8 2 E 4 E 21.6 23.1 30.081 0 0
3/8/18 14:00 24.4 24.5 23.5 73 17 1 E 3 NE 24.4 24.1 30.072 0 0
3/8/18 14:30 25 25.3 24.3 72 17.2 3 SSE 8 W 21.4 24.6 30.059 0 0
3/8/18 15:00 24.8 25.6 24.7 72 17.1 1 N 6 WNW 24.8 24.4 30.05 0 0
3/8/18 15:30 25.1 25.5 24.4 69 16.4 1 S 7 SSE 25.1 24.7 30.045 0 0
3/8/18 16:00 24.5 25.2 24.4 70 16.1 2 SSE 7 SSE 22.7 24.1 30.044 0 0
3/8/18 16:30 23.6 24.5 23.6 72 15.9 2 SSW 9 S 21.7 23.2 30.03 0 0
3/8/18 17:00 23.5 23.9 23.4 71 15.5 2 WSW 8 SSW 21.6 23.1 30.034 0 0
3/8/18 17:30 22.9 23.5 22.9 74 15.8 1 S 5 SSW 22.9 22.6 30.029 0 0
3/8/18 18:00 22.9 23.1 22.7 74 15.8 1 SSE 5 SSW 22.9 22.6 30.03 0 0
3/8/18 18:30 22.3 22.9 22.3 74 15.3 1 SSE 5 SSE 22.3 22 30.027 0 0
3/8/18 19:00 22 22.3 21.9 75 15.3 2 SSE 6 SSE 20 21.7 30.02 0 0
3/8/18 19:30 21.5 22 21.3 76 15.1 1 SSE 5 SSE 21.5 21.2 30.025 0 0
3/8/18 20:00 21 21.6 21 78 15.2 0 -- 4 SSE 21 20.8 30.018 0 0
3/8/18 20:30 20.3 21 20.2 78 14.5 0 -- 4 SSE 20.3 20.1 30.015 0 0
3/8/18 21:00 19.9 20.4 19.8 79 14.4 0 -- 2 ESE 19.9 19.7 30.011 0 0
3/8/18 21:30 17.5 19.9 17.5 80 12.4 0 -- 1 SE 17.5 17.3 30.009 0 0
3/8/18 22:00 14.6 17.5 14.6 83 10.4 0 -- 0 -- 14.6 14.5 30.008 0 0
3/8/18 22:30 13.9 14.6 13.7 86 10.5 0 -- 0 -- 13.9 13.8 30.005 0 0
3/8/18 23:00 13.4 14.2 13.4 85 9.7 0 -- 0 -- 13.4 13.3 30.002 0 0
3/8/18 23:30 14 14 13.2 87 10.8 0 -- 1 SE 14 13.9 29.993 0 0
3/9/18 0:00 12.8 14.7 12.8 85 9.1 0 -- 2 SE 12.8 12.7 29.989 0 0
3/9/18 0:30 10.7 12.8 10.7 85 7.1 0 -- 0 -- 10.7 10.6 29.989 0 0
3/9/18 1:00 10.2 10.8 10 87 7.1 0 -- 0 -- 10.2 10.1 29.995 0 0
3/9/18 1:30 9 10.3 8.9 86 5.7 0 -- 0 -- 9 8.9 29.996 0 0
3/9/18 2:00 7.6 9.2 7 87 4.5 0 -- 2 NE 7.6 7.5 30 0 0
3/9/18 2:30 7.2 7.7 7.2 85 3.6 0 -- 2 NE 7.2 7.1 30.005 0 0
3/9/18 3:00 7.1 7.3 7 84 3.3 0 -- 0 -- 7.1 7 29.996 0 0
3/9/18 3:30 8.4 8.4 7 85 4.8 0 -- 0 -- 8.4 8.3 29.985 0 0
3/9/18 4:00 9.3 9.6 8.4 84 5.4 0 -- 0 -- 9.3 9.2 29.983 0 0
3/9/18 4:30 7.2 9.4 7.2 83 3.1 0 -- 3 ENE 7.2 7.1 29.981 0 0
3/9/18 5:00 9 9.1 7.2 85 5.4 0 -- 1 NE 9 8.9 29.98 0 0
3/9/18 5:30 8.9 9.3 8.9 84 5.1 0 -- 0 -- 8.9 8.8 29.98 0 0
3/9/18 6:00 7.5 9 7.5 83 3.4 0 -- 0 -- 7.5 7.4 29.971 0 0
3/9/18 6:30 7.1 7.8 7 83 3 0 -- 0 -- 7.1 7 29.972 0 0
3/9/18 7:00 6.1 7.4 6.1 83 2 0 -- 1 NE 6.1 6 29.975 0 0
3/9/18 7:30 6.3 6.3 5.9 84 2.5 0 -- 1 NE 6.3 6.2 29.98 0 0
3/9/18 8:00 6.9 7 6.3 83 2.8 0 -- 2 NE 6.9 6.8 29.977 0 0
3/9/18 8:30 9.4 9.4 6.8 84 5.5 0 -- 0 -- 9.4 9.3 29.981 0 0
3/9/18 9:00 11.6 11.6 9.4 85 8 0 -- 0 -- 11.6 11.5 29.986 0 0
3/9/18 9:30 15.6 15.6 11.6 86 12.2 0 -- 3 SE 15.6 15.5 29.989 0 0
3/9/18 10:00 20.1 20.1 15.6 77 14 2 ESE 6 SSE 17.9 19.8 29.992 0 0
3/9/18 10:30 22.3 22.4 20.1 72 14.6 3 SE 8 SSE 18.3 21.9 29.986 0 0
3/9/18 11:00 23.7 23.7 22.2 72 16 5 SSE 10 SSE 17.3 23.3 29.987 0 0
3/9/18 11:30 24.6 24.8 23.7 71 16.5 3 SSE 9 SSE 20.9 24.2 29.988 0 0
3/9/18 12:00 25.5 25.9 24.5 70 17.1 4 SSE 9 SSE 20.6 25.1 29.98 0 0
3/9/18 12:30 26.4 26.5 25.5 71 18.3 4 SSE 10 SSE 21.6 26 29.979 0 0
3/9/18 13:00 27 27.1 26.1 69 18.2 4 SSE 9 SSE 22.3 26.6 29.962 0 0
3/9/18 13:30 27.5 27.9 27.1 69 18.7 4 SSE 10 SE 22.9 27 29.956 0 0
3/9/18 14:00 27.9 28 27.5 70 19.4 4 SSE 11 SSE 23.3 27.4 29.945 0 0
3/9/18 14:30 28.7 28.7 27.9 69 19.8 5 SSE 9 SSE 23.2 28.2 29.941 0 0
3/9/18 15:00 28.6 29 28.1 71 20.4 5 SSE 9 SSE 23.1 28.1 29.932 0 0
3/9/18 15:30 28.7 29 28.2 71 20.5 4 SSE 9 SSE 24.3 28.2 29.926 0 0
3/9/18 16:00 28.5 29 28.2 71 20.3 4 SSE 10 SSE 24 28 29.924 0 0
3/9/18 16:30 28.6 28.9 28.5 72 20.7 3 SSE 7 SSE 25.5 28.1 29.92 0 0
3/9/18 17:00 27.9 28.6 27.8 75 21 2 SSE 6 SSE 26.5 27.5 29.916 0 0
3/9/18 17:30 26.1 28.2 26.1 77 19.9 1 ESE 5 SSE 26.1 25.7 29.914 0 0
3/9/18 18:00 24.4 26.1 24.4 78 18.5 0 -- 2 ENE 24.4 24.1 29.913 0 0
3/9/18 18:30 22.5 24.4 22.5 78 16.7 0 -- 2 ENE 22.5 22.2 29.916 0 0
3/9/18 19:00 22.7 22.9 22.4 78 16.9 0 -- 1 ENE 22.7 22.4 29.914 0 0
3/9/18 19:30 22 22.8 22 79 16.5 0 -- 1 E 22 21.8 29.913 0 0
3/9/18 20:00 22.2 22.2 21.8 79 16.7 0 -- 1 E 22.2 22 29.91 0 0
3/9/18 20:30 23.2 23.3 22.2 79 17.7 0 -- 2 E 23.2 22.9 29.904 0 0
3/9/18 21:00 23.9 23.9 23.2 79 18.3 0 -- 0 -- 23.9 23.6 29.908 0 0
3/9/18 21:30 23.4 24 23.3 81 18.4 0 -- 0 -- 23.4 23.1 29.906 0 0
3/9/18 22:00 26.2 26.2 23.4 81 21.2 2 SSE 5 SSE 24.6 25.9 29.917 0 0
3/9/18 22:30 26.3 26.5 26.2 81 21.3 2 S 6 SSE 24.7 26 29.907 0 0
3/9/18 23:00 26.4 26.4 26.2 80 21.1 3 S 10 SSE 23 26.1 29.906 0 0
3/9/18 23:30 26.1 26.5 26.1 80 20.8 3 SSE 9 SSE 22.6 25.8 29.907 0 0
3/10/18 0:00 25.7 26.1 25.7 80 20.4 3 SSE 8 SSE 22.2 25.4 29.893 0 0
3/10/18 0:30 25.9 25.9 25.3 80 20.6 3 SSE 7 SSE 22.4 25.6 29.893 0 0
3/10/18 1:00 26.4 26.4 25.9 80 21.1 4 SSE 9 SSE 21.6 26.1 29.892 0 0
3/10/18 1:30 26.9 27 26.3 77 20.7 5 SSE 11 SSE 21.1 26.5 29.897 0 0
3/10/18 2:00 27.2 27.2 26.9 74 20 5 SSE 12 SSE 21.4 26.8 29.889 0 0
3/10/18 2:30 26.9 27.2 26.9 75 20 6 SSE 11 SSE 20.2 26.5 29.883 0 0
3/10/18 3:00 26.6 27 26.6 75 19.7 3 SE 8 ESE 23.2 26.2 29.878 0 0
3/10/18 3:30 26.3 26.7 26.2 75 19.5 2 SE 7 ESE 24.7 25.9 29.876 0 0
3/10/18 4:00 26.2 26.3 26.1 76 19.7 4 SSE 8 SSE 21.4 25.8 29.88 0 0
3/10/18 4:30 25.6 26.3 25.6 78 19.7 3 SE 9 SSE 22.1 25.3 29.865 0 0
3/10/18 5:00 25.9 26 25.5 77 19.7 2 SE 6 SE 24.3 25.5 29.871 0 0
3/10/18 5:30 26.3 26.3 25.9 76 19.8 3 SSE 7 SE 22.9 25.9 29.876 0 0
3/10/18 6:00 26.3 26.3 26.1 77 20.1 2 SSE 8 SSE 24.7 25.9 29.879 0 0
3/10/18 6:30 26.4 26.4 26.3 77 20.2 3 SE 8 SE 23 26 29.881 0 0
3/10/18 7:00 26.5 26.6 26.3 79 20.9 4 SSE 8 SSE 21.7 26.2 29.878 0 0
3/10/18 7:30 27.1 27.1 26.5 78 21.2 6 SSE 14 SSE 20.4 26.8 29.881 0 0
3/10/18 8:00 27.7 27.7 27.1 78 21.7 6 SSE 12 SSE 21.1 27.4 29.884 0 0
3/10/18 8:30 28.5 28.5 27.6 78 22.5 6 SSE 12 SSE 22.1 28.2 29.901 0 0
3/10/18 9:00 29.8 29.8 28.3 76 23.2 7 SSE 15 SSE 22.8 29.4 29.901 0 0
3/10/18 9:30 30.8 30.8 29.8 74 23.5 7 SSE 16 SSE 24.1 30.4 29.905 0 0
3/10/18 10:00 31.8 31.8 30.8 74 24.5 6 SSE 12 SSE 26 31.4 29.908 0 0
3/10/18 10:30 31.9 32.9 31.7 74 24.6 6 SSE 14 SSE 26.1 31.5 29.918 0 0
3/10/18 11:00 33.5 33.5 31.8 71 25.1 7 SSE 16 SSE 27.3 33 29.912 0 0
3/10/18 11:30 34 34.3 33.5 70 25.2 7 SSE 14 SSE 27.9 33.5 29.91 0 0
3/10/18 12:00 34.6 34.7 34.1 69 25.5 7 SSE 14 SSE 28.6 34.1 29.915 0 0
3/10/18 12:30 35.1 35.1 34.5 70 26.3 8 SSE 14 SSE 28.6 34.6 29.914 0 0
3/10/18 13:00 35.7 35.8 35.1 69 26.5 6 SSE 14 SSE 30.6 35.1 29.914 0 0
3/10/18 13:30 36.1 36.2 35.2 69 26.9 6 SSE 14 SSE 31.1 35.5 29.917 0 0
3/10/18 14:00 35.5 36.4 35.2 69 26.3 5 SSE 12 S 31.2 34.9 29.927 0 0
3/10/18 14:30 35.3 35.8 35.2 70 26.5 3 S 9 SW 33 34.8 29.929 0 0
3/10/18 15:00 35.1 35.4 35.1 70 26.3 4 SSE 10 SSE 31.7 34.6 29.939 0 0
3/10/18 15:30 35.5 35.6 35.1 71 27 4 SSE 10 SSE 32.1 35 29.949 0 0
3/10/18 16:00 34.7 35.4 34.6 72 26.6 2 SSE 7 S 33.9 34.2 29.955 0 0
3/10/18 16:30 34.8 35 34.6 71 26.4 1 SSW 5 SW 34.8 34.3 29.971 0 0
3/10/18 17:00 34.5 34.9 34.5 72 26.4 1 W 5 WSW 34.5 34 29.978 0 0
3/10/18 17:30 34.2 34.8 34.1 72 26.1 0 -- 4 SE 34.2 33.7 29.986 0 0
3/10/18 18:00 34.2 34.4 34.1 72 26.1 0 -- 0 -- 34.2 33.7 30 0 0
3/10/18 18:30 33.1 34.3 33 76 26.4 0 -- 3 NNW 33.1 32.7 30.01 0 0
3/10/18 19:00 32.3 33.1 32.3 78 26.2 0 -- 3 WNW 32.3 32 30.027 0 0
3/10/18 19:30 31.9 32.3 31.9 79 26.1 0 -- 2 NNW 31.9 31.6 30.039 0 0
3/10/18 20:00 31.5 32 31.4 83 26.9 0 -- 3 N 31.5 31.3 30.052 0 0
3/10/18 20:30 31.7 31.8 31.4 80 26.2 0 -- 0 -- 31.7 31.4 30.059 0 0
3/10/18 21:00 31.7 31.8 31.6 80 26.2 0 -- 1 N 31.7 31.4 30.063 0 0
3/10/18 21:30 31.6 31.7 31.5 81 26.4 0 -- 0 -- 31.6 31.3 30.069 0 0
3/10/18 22:00 31.2 31.7 31.2 82 26.3 0 -- 4 WNW 31.2 30.9 30.07 0 0
3/10/18 22:30 31.1 31.2 31 82 26.2 1 WNW 4 WNW 31.1 30.8 30.083 0 0
3/10/18 23:00 31.1 31.2 31 83 26.5 2 WNW 6 WNW 30 30.9 30.092 0 0
3/10/18 23:30 30.8 31.1 30.8 84 26.5 2 WNW 9 WNW 29.7 30.6 30.098 0 0
3/11/18 0:00 30.3 30.8 30.3 85 26.3 3 WNW 10 WNW 27.4 30.1 30.108 0 0
3/11/18 0:30 30.2 30.4 30.2 85 26.2 3 WNW 9 WNW 27.3 30 30.11 0 0
3/11/18 1:00 30.2 30.3 30.2 85 26.2 2 WNW 9 WNW 29 30 30.119 0 0
3/11/18 1:30 30.1 30.2 30 86 26.4 2 NW 9 WNW 28.9 29.9 30.121 0 0
3/11/18 3:00 29.7 30.1 29.7 87 26.3 3 WNW 10 WNW 26.7 29.5 30.128 0 0
3/11/18 3:30 29.6 29.7 29.6 89 26.8 2 NW 8 NW 28.3 29.4 30.141 0 0
3/11/18 4:00 29.5 29.7 29.4 88 26.4 2 NNW 10 N 28.2 29.3 30.134 0 0
3/11/18 4:30 29.4 29.5 29.3 87 26 2 NNW 10 N 28.1 29.2 30.146 0 0
3/11/18 5:00 29.2 29.4 29.1 86 25.5 2 NW 9 ENE 27.9 29 30.15 0 0
3/11/18 5:30 29.2 29.3 29.1 86 25.5 2 NW 8 WNW 27.9 29 30.154 0 0
3/11/18 6:00 28.8 29.3 28.8 87 25.4 2 NNW 8 NW 27.5 28.6 30.173 0 0
3/11/18 6:30 28.4 28.8 28.3 84 24.2 2 NW 10 NW 27 28.2 30.184 0 0
3/11/18 7:00 28.1 28.4 28.1 85 24.2 2 NW 9 NNW 26.7 27.9 30.196 0 0
3/11/18 7:30 27.7 28.1 27.7 86 24.1 2 NW 9 WNW 26.2 27.5 30.204 0 0
3/11/18 8:00 27.8 27.8 27.7 86 24.2 2 NW 10 NW 26.4 27.6 30.221 0 0
3/11/18 8:30 27.8 27.8 27.7 86 24.2 2 NNW 8 NW 26.4 27.6 30.229 0 0
3/11/18 9:00 27.8 27.9 27.8 84 23.6 2 NW 8 WNW 26.4 27.6 30.229 0 0
3/11/18 9:30 28 28 27.8 83 23.5 2 NW 9 WNW 26.6 27.8 30.238 0 0
3/11/18 10:00 28.6 28.6 28 82 23.8 2 NW 10 N 27.2 28.3 30.243 0 0
3/11/18 10:30 29 29 28.6 78 23 2 NW 11 NW 27.7 28.7 30.252 0 0
3/11/18 11:00 29 29.2 28.9 79 23.3 4 WNW 12 WNW 24.6 28.7 30.258 0 0
3/11/18 11:30 29.6 29.6 29 77 23.3 4 NW 11 WNW 25.3 29.2 30.265 0 0
3/11/18 12:00 30.4 30.4 29.5 76 23.7 4 NW 11 NW 26.2 30 30.272 0 0
3/11/18 12:30 30.6 30.8 30.4 75 23.6 4 NW 12 WNW 26.5 30.2 30.28 0 0
3/11/18 13:00 31.4 31.5 30.5 75 24.4 3 NW 11 NW 28.6 31 30.28 0 0
3/11/18 13:30 32.2 32.2 31.2 73 24.5 5 WNW 13 WNW 27.3 31.8 30.285 0 0
3/11/18 14:00 31.6 32.3 31.6 73 23.9 5 WNW 14 WNW 26.6 31.2 30.283 0 0
3/11/18 14:30 32 33 31.6 71 23.7 4 NW 10 WNW 28.1 31.5 30.275 0 0
3/11/18 15:00 32.2 32.4 31.9 70 23.5 4 NW 11 WNW 28.3 31.7 30.272 0 0
3/11/18 15:30 31.9 32.5 31.7 69 22.9 4 WNW 10 NW 28 31.4 30.276 0 0
3/11/18 16:00 32.2 32.8 32 69 23.2 4 WNW 10 WSW 28.3 31.7 30.277 0 0
3/11/18 16:30 31.7 32.7 31.7 71 23.4 4 WNW 11 WNW 27.7 31.2 30.277 0 0
3/11/18 17:00 31.1 31.8 30.8 72 23.1 6 WNW 14 NW 25.2 30.6 30.288 0 0
3/11/18 17:30 30.5 31.1 30.2 73 22.9 5 WNW 13 W 25.3 30.1 30.286 0 0
3/11/18 18:00 29.6 30.5 29.6 73 22 5 WNW 13 WNW 24.3 29.2 30.29 0 0
3/11/18 18:30 28.7 29.6 28.7 73 21.1 6 WNW 14 WNW 22.3 28.3 30.292 0 0
3/11/18 19:00 28 28.7 28 74 20.8 4 WNW 10 WNW 23.5 27.6 30.291 0 0
3/11/18 19:30 26.8 28 26.8 77 20.6 3 WNW 11 WNW 23.4 26.4 30.298 0 0
3/11/18 20:00 25.9 26.8 25.9 77 19.7 4 W 12 WNW 21 25.5 30.3 0 0
3/11/18 20:30 25.2 26 25.2 77 19 4 W 10 WNW 20.2 24.9 30.294 0 0
3/11/18 21:00 25 25.3 25 77 18.8 4 W 9 W 20 24.7 30.294 0 0
3/11/18 21:30 24.6 25 24.6 77 18.4 4 WNW 10 WNW 19.5 24.3 30.296 0 0
3/11/18 22:00 24 24.6 24 76 17.5 5 WNW 12 WNW 17.7 23.7 30.292 0 0
3/11/18 22:30 23.1 24 23.1 76 16.7 4 W 9 WSW 17.8 22.8 30.29 0 0
3/11/18 23:00 22.9 23.2 22.9 76 16.5 6 W 13 WSW 15.4 22.6 30.293 0 0
3/11/18 23:30 22.4 23 22.4 76 16 5 W 12 WNW 15.8 22.1 30.287 0 0
3/12/18 0:00 22.3 22.5 22.2 76 15.9 5 W 10 WNW 15.7 22 30.29 0 0
3/12/18 0:30 21.6 22.3 21.6 77 15.5 4 W 14 NNW 16.1 21.3 30.296 0 0
3/12/18 1:00 20.8 21.6 20.8 78 15 3 WNW 8 NW 16.6 20.6 30.303 0 0
3/12/18 1:30 20.4 20.8 20.3 79 14.9 3 WNW 9 NW 16.2 20.2 30.307 0 0
3/12/18 2:00 20 20.3 19.9 79 14.5 2 WNW 6 WNW 17.8 19.8 30.311 0 0
3/12/18 2:30 20 20.5 19.7 79 14.5 1 NW 5 NW 20 19.8 30.319 0 0
3/12/18 3:00 19.8 20.1 19.3 80 14.6 1 NW 8 NNW 19.8 19.6 30.319 0 0
3/12/18 3:30 19 19.8 18.7 80 13.8 0 -- 3 NW 19 18.8 30.317 0 0
3/12/18 4:00 19 19.1 18.6 80 13.8 1 NW 4 NW 19 18.8 30.313 0 0
3/12/18 4:30 18.2 19 18.2 80 13.1 1 WNW 4 NW 18.2 18 30.315 0 0
3/12/18 5:00 17.5 18.2 17.4 80 12.4 2 WNW 6 WNW 15 17.3 30.325 0 0
3/12/18 5:30 17.2 17.5 17.1 80 12.1 1 WNW 4 WNW 17.2 17 30.332 0 0
3/12/18 6:00 16.4 17.2 16.4 80 11.3 1 WNW 5 WNW 16.4 16.2 30.339 0 0
3/12/18 6:30 15.4 16.4 15.4 81 10.6 1 WNW 5 WNW 15.4 15.2 30.342 0 0
3/12/18 7:00 14.5 15.4 14.3 82 10 0 -- 1 WNW 14.5 14.3 30.349 0 0
3/12/18 7:30 15.7 15.7 15.1 79 10.3 2 WNW 6 W 13.1 15.5 30.377 0 0
3/12/18 8:00 18.7 18.7 15.7 75 12.1 2 WNW 7 W 16.4 18.4 30.376 0 0
3/12/18 8:30 21 21.1 18.7 71 13.1 2 NW 7 WNW 18.9 20.7 30.375 0 0
3/12/18 9:00 22.9 22.9 21 68 13.9 2 NW 7 W 21 22.5 30.381 0 0
3/12/18 9:30 24.6 24.7 22.9 65 14.5 2 NW 7 NW 22.8 24.1 30.383 0 0
3/12/18 10:00 25.5 25.6 24.6 63 14.6 3 WNW 11 WNW 22 25 30.391 0 0
3/12/18 10:30 27.2 27.2 25.5 63 16.3 3 NW 11 N 23.9 26.7 30.394 0 0
3/12/18 11:00 29 29.1 27.2 61 17.2 3 NW 9 NW 25.9 28.4 30.396 0 0
3/12/18 11:30 29.8 30.3 28.9 59 17.2 4 NNW 11 N 25.5 29.1 30.398 0 0
3/12/18 12:00 30.7 30.7 29.7 61 18.8 3 NNW 10 NNW 27.8 30 30.401 0 0
3/12/18 12:30 30.8 31.1 30.4 60 18.5 3 NW 10 NW 28 30.1 30.399 0 0
3/12/18 13:00 32 32 30.6 59 19.3 4 NW 11 NNW 28.1 31.3 30.396 0 0
3/12/18 13:30 31.7 32 31.4 61 19.8 3 NW 10 NW 29 31 30.392 0 0
3/12/18 14:00 32.8 32.8 31.7 60 20.4 3 NNW 11 NNW 30.2 32.1 30.385 0 0
3/12/18 14:30 32.6 32.8 32.2 60 20.2 4 NNW 13 NNW 28.8 31.9 30.384 0 0
3/12/18 15:00 32.8 32.8 32.1 62 21.2 4 NNW 15 NNW 29 32.1 30.385 0 0
3/12/18 15:30 32.4 33.1 32.4 60 20 4 NNW 13 NW 28.5 31.7 30.385 0 0
3/12/18 16:00 32.2 32.6 32.1 62 20.6 4 NNW 16 NW 28.3 31.5 30.388 0 0
3/12/18 16:30 31.3 32.3 31.2 62 19.8 6 NNW 17 NNE 25.4 30.6 30.389 0 0
3/12/18 17:00 30.8 31.4 30.8 63 19.7 4 NNW 14 NNE 26.7 30.2 30.389 0 0
3/12/18 17:30 29.4 30.8 29.3 66 19.4 4 N 11 N 25.1 28.8 30.393 0 0
3/12/18 18:00 27.8 29.4 27.8 64 17.2 4 NNW 14 NNW 23.2 27.3 30.399 0 0
3/12/18 18:30 26.5 27.8 26.5 67 17 3 NW 11 NNW 23.1 26 30.402 0 0
3/12/18 19:00 25.5 26.5 25.5 70 17.1 3 NNW 11 NNE 22 25.1 30.41 0 0
3/12/18 19:30 24.2 25.5 24.2 71 16.1 2 NNW 9 NNE 22.4 23.8 30.417 0 0
3/12/18 20:00 22.8 24.3 22.8 73 15.4 1 NNW 9 NNW 22.8 22.5 30.423 0 0
3/12/18 20:30 22.1 22.9 22.1 74 15.1 0 -- 4 NNW 22.1 21.8 30.424 0 0
3/12/18 21:00 21.2 22.2 21.2 74 14.2 1 NW 7 NW 21.2 20.9 30.429 0 0
3/12/18 21:30 20 21.2 20 75 13.3 1 NNW 5 NNW 20 19.7 30.433 0 0
3/12/18 22:00 19.4 20 19.3 75 12.8 1 NW 5 NW 19.4 19.1 30.442 0 0
3/12/18 22:30 18.3 20 18.3 76 12 1 NW 7 W 18.3 18 30.446 0 0
3/12/18 23:00 18.2 18.4 17.8 76 11.9 1 NW 5 NW 18.2 17.9 30.453 0 0
3/12/18 23:30 17.6 18.2 17.5 77 11.6 0 -- 4 NNW 17.6 17.4 30.448 0 0
3/13/18 0:00 17.2 17.7 17.2 78 11.5 1 WNW 4 NW 17.2 17 30.442 0 0
3/13/18 0:30 16.2 17.2 16.2 78 10.5 2 WNW 7 WNW 13.6 16 30.44 0 0
3/13/18 1:00 16.2 16.4 16.1 80 11.1 2 WNW 7 WNW 13.6 16 30.44 0 0
3/13/18 1:30 15.1 16.3 15.1 81 10.3 0 -- 3 WNW 15.1 14.9 30.444 0 0
3/13/18 2:00 14.9 15.1 14.4 82 10.4 0 -- 3 NW 14.9 14.7 30.447 0 0
3/13/18 2:30 14.7 15 14.6 82 10.2 0 -- 2 WNW 14.7 14.5 30.439 0 0
3/13/18 3:00 13.9 14.7 13.8 82 9.4 0 -- 2 NW 13.9 13.7 30.432 0 0
3/13/18 3:30 14.2 14.2 13.8 82 9.7 0 -- 2 WNW 14.2 14 30.426 0 0
3/13/18 4:00 13.5 14.2 13.5 82 9 0 -- 2 WNW 13.5 13.3 30.423 0 0
3/13/18 4:30 13 13.5 12.9 83 8.8 0 -- 2 WNW 13 12.9 30.423 0 0
3/13/18 5:00 12.6 13.2 12.6 82 8.1 0 -- 3 WNW 12.6 12.4 30.432 0 0
3/13/18 5:30 12.5 12.7 12.5 82 8 0 -- 3 WNW 12.5 12.3 30.443 0 0
3/13/18 6:00 12.2 12.5 12.1 83 8 0 -- 1 WNW 12.2 12.1 30.443 0 0
3/13/18 6:30 11.7 12.2 11.7 82 7.3 0 -- 3 W 11.7 11.5 30.446 0 0
3/13/18 7:00 10.6 11.7 10.6 83 6.5 0 -- 2 WNW 10.6 10.5 30.452 0 0
3/13/18 7:30 12.2 12.3 10.6 82 7.8 0 -- 0 -- 12.2 12 30.451 0 0
3/13/18 8:00 15.1 15.1 12.2 78 9.5 0 -- 0 -- 15.1 14.9 30.449 0 0
3/13/18 8:30 17.8 17.8 15.1 75 11.2 0 -- 0 -- 17.8 17.5 30.449 0 0
3/13/18 9:00 20.4 20.4 17.8 72 12.8 0 -- 2 W 20.4 20.1 30.451 0 0
3/13/18 9:30 22.8 22.9 20.5 67 13.5 1 NNW 4 NNW 22.8 22.4 30.451 0 0
3/13/18 10:00 22.5 23.5 22.3 70 14.2 1 NNE 3 NNW 22.5 22.1 30.446 0 0
3/13/18 10:30 23.1 23.3 21.9 70 14.8 1 E 3 E 23.1 22.7 30.444 0 0
3/13/18 11:00 24.4 24.4 23.1 70 16 1 ENE 3 ENE 24.4 24 30.441 0 0
3/13/18 11:30 25.6 25.6 24.3 70 17.2 1 ENE 4 ESE 25.6 25.2 30.435 0 0
3/13/18 12:00 27.1 27.1 25.4 69 18.3 1 ENE 3 ENE 27.1 26.7 30.423 0 0
3/13/18 12:30 28.3 28.6 26.9 66 18.4 1 ENE 4 ENE 28.3 27.8 30.411 0 0
3/13/18 13:00 31.2 31.4 28.3 57 17.7 3 W 10 NW 28.4 30.4 30.397 0 0
3/13/18 13:30 32.2 32.3 31.2 52 16.5 5 W 11 WNW 27.3 31.3 30.372 0 0
3/13/18 14:00 33.1 33.7 32.2 49 16 3 WSW 10 W 30.6 32.2 30.359 0 0
3/13/18 14:30 33.3 33.7 32.9 45 14.2 3 WSW 10 WSW 30.8 32.3 30.354 0 0
3/13/18 15:00 34.1 34.3 33.3 50 17.4 3 WSW 10 W 31.7 33.2 30.339 0 0
3/13/18 15:30 34.1 34.6 34 46 15.5 3 SSW 7 SSE 31.7 33.1 30.325 0 0
3/13/18 16:00 33 34.6 33 59 20.2 3 SSE 10 SE 30.4 32.3 30.312 0 0
3/13/18 16:30 32.9 33.1 32.3 60 20.5 3 S 9 SSE 30.3 32.2 30.299 0 0
3/13/18 17:00 33.3 33.5 33 60 20.9 4 S 10 S 29.6 32.6 30.279 0 0
3/13/18 17:30 32 33.3 32 60 19.7 4 S 12 S 28.1 31.3 30.253 0 0
3/13/18 18:00 30.5 32 30.5 62 19 4 SSW 10 SSW 26.3 29.8 30.242 0 0
3/13/18 18:30 29.4 30.6 29.3 67 19.8 3 S 10 SSW 26.4 28.8 30.234 0 0
3/13/18 19:00 28 29.3 28 70 19.5 3 S 8 SSE 24.8 27.5 30.215 0 0
3/13/18 19:30 27.5 28 27.5 71 19.3 3 S 8 SSE 24.2 27.1 30.2 0 0
3/13/18 20:00 27.1 27.5 27.1 73 19.6 2 S 8 S 25.6 26.7 30.193 0 0
3/13/18 20:30 26.9 27.5 26.9 74 19.7 2 S 10 S 25.4 26.5 30.177 0 0
3/13/18 21:00 25.8 26.9 25.8 76 19.3 2 SSE 6 SSE 24.2 25.4 30.164 0 0
3/13/18 21:30 25.6 26.1 25.5 76 19.1 2 S 7 SSE 23.9 25.3 30.142 0 0
3/13/18 22:00 25.3 25.7 25.3 77 19.1 2 SSE 6 S 23.6 25 30.14 0 0
3/13/18 22:30 26.3 26.3 25.1 76 19.8 3 SSW 7 S 22.9 25.9 30.109 0 0
3/13/18 23:00 26.3 27.1 26.3 76 19.8 3 SSE 12 S 22.9 25.9 30.11 0 0
3/13/18 23:30 26.3 26.5 26.1 76 19.8 2 S 8 SSE 24.7 25.9 30.094 0 0
3/14/18 0:00 26.9 27 26.2 74 19.7 2 SSW 9 SSE 25.4 26.5 30.066 0 0
3/14/18 0:30 27.3 27.4 26.9 74 20.1 2 SSW 10 W 25.8 26.9 30.058 0 0
3/14/18 1:00 26.9 27.3 26.9 74 19.7 2 SSW 8 SSW 25.4 26.5 30.05 0 0
3/14/18 1:30 26.7 26.9 26.5 74 19.5 2 SSW 7 SW 25.1 26.3 30.04 0 0
3/14/18 2:00 26.5 26.8 26.4 75 19.6 2 SW 7 WSW 24.9 26.1 30.031 0 0
3/14/18 2:30 26 26.5 25.8 75 19.2 1 SW 6 SSW 26 25.6 30.009 0 0
3/14/18 3:00 26.4 26.5 26 75 19.5 3 WSW 9 SSW 23 26 29.99 0 0
3/14/18 3:30 26.5 26.5 26.3 75 19.6 3 WSW 12 SW 23.1 26.1 29.975 0 0
3/14/18 4:00 26.5 26.7 26.4 75 19.6 3 WSW 9 WSW 23.1 26.1 29.961 0 0
3/14/18 4:30 26.4 26.6 26.4 75 19.5 4 WSW 14 WSW 21.6 26 29.958 0 0
3/14/18 5:00 26.1 26.4 26 76 19.6 5 WSW 13 W 20.1 25.7 29.96 0 0
3/14/18 5:30 24.9 26.1 24.9 77 18.7 4 W 10 W 19.9 24.6 29.955 0 0
3/14/18 6:00 24.6 24.9 24.5 78 18.7 4 W 10 WSW 19.5 24.3 29.948 0 0
3/14/18 6:30 24.7 24.8 24.4 79 19.1 3 W 9 W 21.1 24.4 29.951 0 0
3/14/18 7:00 24.4 25 24.4 79 18.8 4 WNW 10 W 19.3 24.1 29.946 0 0
3/14/18 7:30 24.3 24.5 24.2 79 18.7 4 WNW 10 WNW 19.2 24 29.949 0 0
3/14/18 8:00 24.7 24.7 24.2 78 18.8 3 NW 10 WNW 21.1 24.4 29.947 0 0
3/14/18 8:30 27 27 24.6 74 19.8 2 NW 6 W 25.5 26.6 29.949 0 0
3/14/18 9:00 30 30 27.1 69 21.1 2 NNW 8 NW 28.8 29.5 29.949 0 0
3/14/18 9:30 31.4 31.4 30 68 22.1 3 NNW 10 NNW 28.6 30.9 29.951 0 0
3/14/18 10:00 30.1 31.5 30.1 69 21.2 5 N 12 NNW 24.8 29.6 29.958 0 0
3/14/18 10:30 30.4 30.7 30.2 70 21.8 4 N 12 N 26.2 29.9 29.963 0 0
3/14/18 11:00 30.7 31 30.4 67 21 4 N 10 N 26.6 30.1 29.966 0 0
3/14/18 11:30 31.4 31.4 30.5 69 22.4 3 N 9 N 28.6 30.9 29.962 0 0
3/14/18 12:00 32.3 32.4 31.4 68 22.9 4 N 9 NNW 28.4 31.8 29.961 0 0
3/14/18 12:30 33.8 33.8 32.4 66 23.6 4 NNE 9 NNW 30.2 33.2 29.96 0 0
3/14/18 13:00 33.9 34.7 33.7 67 24.1 5 N 10 NNE 29.3 33.3 29.958 0 0
3/14/18 13:30 34.5 34.6 33.9 66 24.3 5 N 11 NNW 30 33.9 29.949 0 0
3/14/18 14:00 35.3 35.3 34.2 66 25.1 5 N 11 NNE 31 34.7 29.942 0 0
3/14/18 14:30 35.6 35.7 35 65 25 6 N 11 N 30.5 34.9 29.944 0 0
3/14/18 15:00 36.1 36.2 35.6 64 25.1 4 N 12 N 32.8 35.4 29.945 0 0
3/14/18 15:30 37.1 37.2 35.9 64 26 3 N 9 N 35.1 36.4 29.939 0 0
3/14/18 16:00 36.8 37.1 36.6 65 26.1 3 N 9 N 34.7 36.1 29.942 0 0
3/14/18 16:30 36 37.2 36 66 25.7 3 NNW 10 NNE 33.8 35.3 29.943 0 0
3/14/18 17:00 35.2 36.1 35.2 67 25.3 3 N 11 NW 32.9 34.6 29.947 0 0
3/14/18 18:30 34 35.2 33.9 70 25.2 3 N 9 N 31.6 33.5 29.984 0 0
3/14/18 19:00 32.9 34 32.9 71 24.5 2 NNW 9 NNE 32 32.4 29.987 0 0
3/14/18 19:30 31.1 32.9 31.1 74 23.8 1 NNW 9 NW 31.1 30.7 29.987 0 0
3/14/18 20:30 28.4 29.9 28.4 78 22.4 4 N 11 N 23.9 28.1 29.995 0 0
3/14/18 21:00 26.6 28.4 26.6 80 21.3 3 N 9 N 23.2 26.3 30 0 0
3/14/18 21:30 25.5 26.6 25.5 81 20.5 5 N 11 NNE 19.4 25.2 30.004 0 0
3/14/18 22:00 24.2 25.5 24.2 82 19.5 5 N 12 N 17.9 23.9 30.002 0 0
3/14/18 22:30 22.8 24.2 22.8 84 18.7 3 N 10 NNE 18.9 22.6 30.004 0 0
3/14/18 23:00 20.8 21.9 20.8 85 17 1 NNW 5 N 20.8 20.6 30.011 0 0
3/14/18 23:30 19.6 20.8 19.6 85 15.8 4 N 10 N 13.8 19.4 30 0 0
3/15/18 0:00 18.6 19.6 18.6 86 15.1 2 N 8 NNW 16.2 18.4 30.004 0 0
3/15/18 0:30 18.3 18.6 18.2 86 14.8 2 N 7 NNE 15.9 18.1 30.005 0 0
3/15/18 1:00 17.5 18.3 17.5 85 13.8 2 N 7 N 15 17.4 30.006 0 0
3/15/18 1:30 16.6 17.5 16.4 85 12.9 2 N 7 NNE 14 16.5 30.008 0 0
3/15/18 2:00 16.2 16.6 16.2 85 12.5 3 N 8 N 11.4 16.1 30.013 0 0
3/15/18 2:30 15.8 16.3 15.8 85 12.1 2 N 8 NNE 13.2 15.7 30.015 0 0
3/15/18 3:00 15.4 15.9 15.4 85 11.7 2 N 6 NNW 12.7 15.3 30.007 0 0
3/15/18 3:30 14.5 15.4 14.5 85 10.8 2 N 7 N 11.7 14.4 30.007 0 0
3/15/18 4:00 14.1 14.5 14.1 85 10.4 2 N 5 N 11.3 14 30.011 0 0
3/15/18 5:30 13.8 14.1 13.7 86 10.4 1 NNW 5 NNW 13.8 13.7 30.017 0 0
3/15/18 6:00 13.4 13.9 13.4 85 9.7 1 NNW 4 N 13.4 13.3 30.029 0 0
3/15/18 6:30 13.1 13.5 13 85 9.4 0 -- 4 N 13.1 13 30.04 0 0
3/15/18 7:00 12.8 13.2 12.7 84 8.9 1 N 4 NNW 12.8 12.7 30.037 0 0
3/15/18 7:30 11.9 12.8 11.9 84 8 1 N 5 NNW 11.9 11.8 30.045 0 0
3/15/18 8:00 11.6 12 11.6 84 7.7 1 N 5 N 11.6 11.5 30.052 0 0
3/15/18 8:30 12.4 12.4 11.6 83 8.2 2 N 5 N 9.4 12.3 30.055 0 0
3/15/18 9:00 13.9 13.9 12.3 82 9.4 2 N 6 N 11.1 13.7 30.061 0 0
3/15/18 9:30 16.4 16.5 13.9 80 11.3 2 N 5 N 13.8 16.2 30.067 0 0
3/15/18 10:00 19.4 19.4 16.4 78 13.7 3 N 7 N 15.1 19.2 30.078 0 0
3/15/18 10:30 22.7 22.7 19.3 75 16 2 N 7 N 20.7 22.4 30.083 0 0
3/15/18 11:00 25.2 25.2 22.7 73 17.8 2 NNE 7 NNE 23.5 24.8 30.084 0 0
3/15/18 11:30 28.5 28.5 25.2 70 20 3 NE 6 NE 25.4 28 30.083 0 0
3/15/18 12:00 30.5 30.5 28.4 68 21.2 4 NE 8 NNE 26.3 30 30.082 0 0
3/15/18 13:00 32.1 32.2 31.2 62 20.5 5 ENE 9 NE 27.2 31.4 30.067 0 0
3/15/18 13:30 33 33.1 32.1 60 20.6 4 ENE 10 NE 29.2 32.3 30.069 0 0
3/15/18 14:00 33.9 34 32.9 57 20.3 4 ENE 9 NNE 30.3 33.1 30.066 0 0
3/15/18 14:30 34.7 35.1 33.9 55 20.2 5 NE 10 NE 30.2 33.9 30.058 0 0
3/15/18 15:00 35.7 35.7 34.6 56 21.5 4 NE 9 NE 32.4 34.9 30.055 0 0
3/15/18 15:30 36.2 36.5 35.7 51 19.8 4 NE 8 ENE 32.9 35.2 30.058 0 0
3/15/18 16:00 36.5 37.1 36.1 54 21.4 4 NE 8 NNE 33.3 35.6 30.056 0 0
3/15/18 16:30 36.3 36.5 35.8 52 20.3 4 N 9 NNE 33 35.3 30.053 0 0
3/15/18 17:00 35.1 36.6 35.1 55 20.5 5 NNE 9 N 30.7 34.3 30.05 0 0
3/15/18 17:30 34 35.2 33.9 57 20.3 5 NNE 11 NNE 29.4 33.2 30.048 0 0
3/15/18 18:00 33.5 34.1 33.4 60 21.1 5 N 10 N 28.8 32.8 30.048 0 0
3/15/18 18:30 32.4 33.5 32.3 62 20.8 4 NNE 9 N 28.5 31.7 30.051 0 0
3/15/18 19:00 31.8 32.4 31.8 62 20.3 3 NE 8 NNE 29.1 31.1 30.052 0 0
3/15/18 19:30 30.3 31.8 30.3 66 20.3 3 NE 10 NE 27.4 29.7 30.049 0 0
3/15/18 20:00 27.5 30.3 27.4 71 19.3 3 NE 6 NE 24.2 27.1 30.05 0 0
3/15/18 20:30 27.3 27.5 26.9 73 19.8 1 NE 4 NE 27.3 26.9 30.056 0 0
3/15/18 21:00 25.6 27.3 25.6 76 19.1 0 -- 3 NE 25.6 25.3 30.066 0 0
3/15/18 21:30 24.7 25.8 24.7 77 18.5 0 -- 1 NE 24.7 24.4 30.073 0 0
3/15/18 22:00 22.6 24.7 22.6 80 17.4 0 -- 0 -- 22.6 22.3 30.089 0 0
3/15/18 22:30 22.9 23 22.6 77 16.8 0 -- 0 -- 22.9 22.6 30.094 0 0
3/15/18 23:00 24.4 24.8 22.9 60 12.5 0 -- 1 NE 24.4 23.9 30.104 0 0
3/15/18 23:30 23.9 25.8 23.9 59 11.6 0 -- 4 E 23.9 23.4 30.111 0 0
3/16/18 0:00 24.7 24.8 23.4 55 10.8 1 E 3 E 24.7 24.1 30.122 0 0
3/16/18 0:30 22.8 24.8 22.7 60 11 0 -- 2 E 22.8 22.3 30.127 0 0
3/16/18 1:00 21.8 22.9 21.8 63 11.1 0 -- 0 -- 21.8 21.4 30.13 0 0
3/16/18 1:30 20.1 21.9 20 66 10.6 0 -- 2 E 20.1 19.7 30.136 0 0
3/16/18 2:00 19.3 20.5 19.3 68 10.5 0 -- 2 E 19.3 19 30.134 0 0
3/16/18 2:30 19.3 19.3 18.6 68 10.5 0 -- 1 E 19.3 19 30.136 0 0
3/16/18 3:00 18 19.4 18 71 10.2 0 -- 0 -- 18 17.7 30.138 0 0
3/16/18 3:30 16.8 18 16.6 73 9.6 0 -- 0 -- 16.8 16.6 30.135 0 0
3/16/18 4:00 16.7 17.1 16.4 72 9.2 0 -- 2 E 16.7 16.4 30.132 0 0
3/16/18 4:30 16.2 16.8 16.2 73 9.1 0 -- 3 ENE 16.2 16 30.13 0 0
3/16/18 5:00 16.9 17.4 16.1 71 9.1 1 ENE 4 ENE 16.9 16.6 30.125 0 0
3/16/18 5:30 15.9 16.8 15.6 72 8.5 1 ENE 3 ENE 15.9 15.6 30.127 0 0
3/16/18 6:00 16 16.2 15.6 70 7.9 0 -- 2 ENE 16 15.7 30.129 0 0
3/16/18 6:30 14.7 16.1 14.7 72 7.3 0 -- 2 ENE 14.7 14.4 30.122 0 0
3/16/18 7:00 13.6 14.8 13.6 74 6.8 0 -- 2 ENE 13.6 13.4 30.126 0 0
3/16/18 7:30 13.3 13.6 13 74 6.6 0 -- 0 -- 13.3 13.1 30.127 0 0
3/16/18 8:00 13.8 13.8 12.9 73 6.7 0 -- 0 -- 13.8 13.6 30.131 0 0
3/16/18 8:30 16.2 16.2 13.8 70 8.1 0 -- 0 -- 16.2 15.9 30.139 0 0
3/16/18 9:00 19.6 19.8 16.2 59 7.6 0 -- 2 ENE 19.6 19.2 30.142 0 0
3/16/18 9:30 22.3 22.3 19.5 56 9 0 -- 3 ENE 22.3 21.8 30.143 0 0
3/16/18 10:00 24 24 22.2 54 9.7 0 -- 3 ENE 24 23.4 30.155 0 0
3/16/18 10:30 29.5 29.6 27.9 50 13.1 2 NNE 5 NNE 28.2 28.7 30.153 0 0
3/16/18 11:00 30.4 31 29.5 50 14 3 NNE 7 NNE 27.5 29.6 30.157 0 0
3/16/18 11:30 31.7 31.7 30.3 49 14.7 2 ENE 5 NE 30.6 30.8 30.159 0 0
3/16/18 12:00 33 33 31.7 49 15.9 2 N 6 N 32.1 32.1 30.157 0 0
3/16/18 12:30 33.4 33.7 32.7 49 16.3 3 NNE 8 N 30.9 32.5 30.143 0 0
3/16/18 13:00 34.2 34.4 33.4 50 17.5 4 NNE 9 N 30.6 33.3 30.136 0 0
3/16/18 13:30 35.4 35.4 34.2 48 17.6 5 NNE 10 NNE 31.1 34.4 30.124 0 0
3/16/18 14:00 36.9 36.9 35.3 51 20.4 6 NNE 11 N 32.1 35.9 30.109 0 0
3/16/18 14:30 37.6 37.7 36.6 52 21.5 3 N 8 NNE 35.7 36.6 30.097 0 0
3/16/18 15:00 39.5 39.6 37.6 45 19.9 2 NNE 7 NNE 39.2 38.3 30.085 0 0
3/16/18 15:30 40.3 40.3 38.9 47 21.6 2 E 7 E 40.1 39.1 30.085 0 0
3/16/18 16:00 40.9 41 40.2 42 19.5 2 E 6 ESE 40.8 39.6 30.08 0 0
3/16/18 16:30 40.5 41.2 40.4 42 19.2 3 E 7 E 39 39.2 30.08 0 0
3/16/18 17:00 40.6 41.1 40.4 43 19.8 2 ESE 6 E 40.5 39.3 30.077 0 0
3/16/18 17:30 35.7 40.6 35.7 59 22.8 3 NE 8 N 33.5 34.9 30.082 0 0
3/16/18 18:00 33 35.7 33 65 22.5 3 NNE 7 NNE 30.4 32.4 30.079 0 0
3/16/18 18:30 30.6 33.1 30.6 70 22 2 N 7 N 29.4 30.1 30.077 0 0
3/16/18 19:00 28.9 30.6 28.9 73 21.3 1 N 4 NNW 28.9 28.5 30.073 0 0
3/16/18 19:30 27.3 28.9 27.2 75 20.4 0 -- 2 N 27.3 26.9 30.072 0 0
3/16/18 20:00 26.3 27.3 26.3 74 19.1 1 N 4 N 26.3 25.9 30.071 0 0
3/16/18 20:30 25.1 26.3 25.1 74 18 1 N 4 NNE 25.1 24.8 30.06 0 0
3/16/18 21:00 23.5 25.1 23.5 76 17 1 N 4 NNW 23.5 23.2 30.057 0 0
3/16/18 22:36 22.9 23.6 22.9 77 16.8 1 N 3 N 22.9 22.6 30.052 0 0
3/16/18 23:00 22.3 22.7 22.3 79 16.8 0 -- 3 N 22.3 22.1 30.047 0 0
3/16/18 23:30 22.2 22.3 22 80 17 0 -- 1 N 22.2 22 30.045 0 0
3/17/18 0:00 21.8 22.2 21.7 80 16.6 0 -- 1 NNE 21.8 21.6 30.049 0 0
3/17/18 0:30 21.6 22.3 21.5 80 16.4 0 -- 1 NNE 21.6 21.4 30.058 0 0
3/17/18 1:00 20.9 21.7 20.8 80 15.7 0 -- 0 -- 20.9 20.7 30.059 0 0
3/17/18 1:30 19.9 20.8 19.9 81 15 0 -- 0 -- 19.9 19.7 30.059 0 0
3/17/18 2:00 19.3 19.9 19.3 79 13.9 0 -- 0 -- 19.3 19.1 30.066 0 0
3/17/18 2:30 18.1 19.3 18.1 80 13 0 -- 0 -- 18.1 17.9 30.069 0 0
3/17/18 3:00 18.1 18.2 18 79 12.7 0 -- 2 NW 18.1 17.9 30.071 0 0
3/17/18 3:30 16.9 18.1 16.9 80 11.8 0 -- 0 -- 16.9 16.7 30.064 0 0
3/17/18 4:00 16.3 16.9 16.3 75 9.8 1 WNW 4 W 16.3 16.1 30.065 0 0
3/17/18 4:30 15.3 16.3 15.3 74 8.5 0 -- 4 W 15.3 15.1 30.057 0 0
3/17/18 5:00 14.5 15.3 14.5 72 7.1 0 -- 2 W 14.5 14.2 30.053 0 0
3/17/18 5:30 13.8 14.5 13.8 73 6.7 0 -- 1 W 13.8 13.6 30.048 0 0
3/17/18 6:00 13 13.9 13 76 6.9 0 -- 0 -- 13 12.8 30.056 0 0
3/17/18 6:30 12.7 13.2 12.7 78 7.1 0 -- 0 -- 12.7 12.5 30.052 0 0
3/17/18 7:00 11.9 12.7 11.9 78 6.4 0 -- 0 -- 11.9 11.7 30.051 0 0
3/17/18 7:30 11.9 12.3 11.8 77 6.1 0 -- 0 -- 11.9 11.7 30.048 0 0
3/17/18 8:00 12.6 12.6 11.6 77 6.8 0 -- 0 -- 12.6 12.4 30.046 0 0
3/17/18 8:30 14.4 14.4 12.6 74 7.6 0 -- 1 NW 14.4 14.2 30.045 0 0
3/17/18 9:00 18.8 18.8 14.9 74 11.9 0 -- 0 -- 18.8 18.5 30.05 0 0
3/17/18 9:30 23.1 23.1 18.9 73 15.7 0 -- 0 -- 23.1 22.8 30.058 0 0
3/17/18 10:00 27.5 27.6 23.1 71 19.3 0 -- 0 -- 27.5 27.1 30.059 0 0
3/17/18 10:30 32.7 32.7 27.4 53 17.4 0 -- 3 ESE 32.7 31.9 30.061 0 0
3/17/18 11:00 35.3 35.3 32.7 49 18 1 ESE 3 ESE 35.3 34.3 30.064 0 0
3/17/18 11:30 36.9 37.1 35.3 46 18 1 S 8 WSW 36.9 35.8 30.07 0 0
3/17/18 12:00 37.1 38.1 36.5 53 21.5 2 WNW 7 WSW 36.6 36.2 30.067 0 0
3/17/18 12:30 37.8 38.2 36.9 45 18.3 3 WSW 9 WSW 35.9 36.7 30.066 0 0
3/17/18 13:00 37.7 38.2 37.6 41 16.1 1 SSW 6 SSE 37.7 36.5 30.06 0 0
3/17/18 13:30 39 39.1 37.6 39 16.1 1 W 6 W 39 37.7 30.048 0 0
3/17/18 14:00 38 39.1 37.7 56 23.7 2 ENE 6 NE 37.6 37.1 30.041 0 0
3/17/18 14:30 38.7 38.8 37.9 55 23.9 2 ENE 6 N 38.3 37.8 30.029 0 0
3/17/18 15:00 39.1 39.1 38.3 52 22.9 3 N 7 NNE 37.3 38.1 30.025 0 0
3/17/18 15:30 39.1 39.4 38.9 52 22.9 2 N 5 N 38.8 38.1 30.019 0 0
3/17/18 16:00 39 39.4 38.3 51 22.4 2 ENE 5 ENE 38.7 38 30.019 0 0
3/17/18 16:30 38.7 39.2 38.7 50 21.6 2 NE 5 N 38.3 37.7 30.019 0 0
3/17/18 17:00 39 39.2 38.4 47 20.5 2 NNW 4 WNW 38.7 37.9 30.015 0 0
3/17/18 17:30 38.4 39.4 38.4 50 21.4 2 N 5 NW 38 37.4 30.022 0 0
3/17/18 18:00 36.8 38.4 36.8 56 22.6 2 ENE 4 NNE 36.2 35.9 30.01 0 0
3/17/18 18:30 35 36.8 35 61 22.9 1 E 3 E 35 34.3 30.007 0 0
3/17/18 19:00 34.3 35 34.2 58 21 0 -- 2 E 34.3 33.6 30.008 0 0
3/17/18 19:30 32.5 34.4 32.5 61 20.5 0 -- 3 E 32.5 31.8 30.01 0 0
3/17/18 20:00 30.3 32.5 30.3 66 20.3 0 -- 0 -- 30.3 29.7 30.008 0 0
3/17/18 20:30 29.9 31.4 29.3 68 20.6 0 -- 0 -- 29.9 29.4 30.005 0 0
3/17/18 21:00 28.2 29.8 28.2 74 21 0 -- 0 -- 28.2 27.8 30.007 0 0
3/17/18 21:30 27.9 28.2 27.8 74 20.7 0 -- 0 -- 27.9 27.5 30.007 0 0
3/17/18 22:00 28.3 28.4 27.6 74 21.1 0 -- 0 -- 28.3 27.9 30.01 0 0
3/17/18 22:30 29.1 29.1 28.3 73 21.5 0 -- 0 -- 29.1 28.7 30.009 0 0
3/17/18 23:00 32.7 32.7 31.2 74 25.3 0 -- 0 -- 32.7 32.3 30.016 0 0
3/17/18 23:30 32.5 32.8 32.3 75 25.5 0 -- 0 -- 32.5 32.1 30.011 0 0
3/18/18 0:00 32.6 32.6 32.4 76 25.9 0 -- 0 -- 32.6 32.2 30.009 0 0
3/18/18 0:30 33.2 33.2 32.6 73 25.5 0 -- 3 S 33.2 32.7 30.006 0 0
3/18/18 1:00 33.3 33.6 33.2 75 26.2 0 -- 3 S 33.3 32.9 30.007 0 0
3/18/18 1:30 33 33.3 33 76 26.3 0 -- 0 -- 33 32.6 30.006 0 0
3/18/18 2:00 33.1 33.2 32.9 75 26 0 -- 0 -- 33.1 32.7 30 0 0
3/18/18 2:30 33.9 33.9 33.1 69 24.8 0 -- 4 W 33.9 33.4 29.997 0 0
3/18/18 3:00 33.8 33.9 33.7 69 24.7 0 -- 3 WSW 33.8 33.3 29.99 0 0
3/18/18 3:30 33.9 34 33.6 70 25.1 2 W 6 W 33.1 33.4 29.99 0 0
3/18/18 4:00 33.8 34 33.7 72 25.7 2 W 8 W 32.9 33.3 29.991 0 0
3/18/18 4:30 34 34 33.7 75 26.9 1 W 6 W 34 33.5 29.991 0 0
3/18/18 5:00 34.2 34.3 33.9 75 27.1 2 W 8 WSW 33.4 33.7 29.99 0 0
3/18/18 5:30 34.2 34.3 34.1 76 27.4 2 W 7 WSW 33.4 33.7 29.993 0 0
3/18/18 6:00 34.2 34.3 34 76 27.4 1 WSW 3 WSW 34.2 33.7 29.996 0 0
3/18/18 6:30 34.3 34.4 34.2 77 27.8 2 WSW 11 WSW 33.5 33.9 29.996 0 0
3/18/18 7:00 34.2 34.4 34.1 78 28.1 0 -- 3 WSW 34.2 33.8 29.996 0 0
3/18/18 7:30 34.4 34.4 34.1 78 28.2 0 -- 4 W 34.4 34 29.987 0 0
3/18/18 8:00 34.8 34.8 34.4 78 28.6 1 WSW 6 W 34.8 34.4 29.981 0 0
3/18/18 8:30 35.4 35.5 34.8 77 28.9 1 WSW 6 W 35.4 35 29.984 0 0
3/18/18 9:00 35.7 35.8 35.4 76 28.9 1 WSW 5 WSW 35.7 35.3 29.983 0 0
3/18/18 9:30 36.2 36.3 35.7 76 29.4 2 WSW 6 W 35.6 35.8 29.987 0 0
3/18/18 10:00 36.6 36.7 36.3 75 29.4 2 WSW 7 WSW 36 36.2 29.991 0 0
3/18/18 10:30 37.1 37.1 36.6 74 29.6 2 W 7 W 36.6 36.7 29.99 0 0
3/18/18 11:00 37 37.2 36.6 75 29.8 3 WNW 7 NW 35 36.6 29.993 0 0
3/18/18 11:30 36.9 37.1 36.8 75 29.7 3 WNW 8 WNW 34.9 36.5 29.993 0 0
3/18/18 12:00 37.3 37.3 36.9 74 29.8 2 WNW 6 WNW 36.8 36.9 29.99 0 0
3/18/18 12:30 37.3 37.4 36.8 75 30.1 1 WNW 3 NW 37.3 36.9 29.988 0 0
3/18/18 13:00 37.3 37.6 37.3 74 29.8 2 N 4 NNW 36.8 36.9 29.984 0 0
3/18/18 13:30 37 37.3 36.8 76 30.1 2 NNE 4 NE 36.5 36.6 29.98 0 0
3/18/18 14:00 37.1 37.1 36.7 76 30.2 2 NE 5 NNE 36.6 36.7 29.971 0 0
3/18/18 14:30 36.9 37.5 36.9 76 30 2 NE 5 N 36.4 36.5 29.969 0 0
3/18/18 15:00 36.5 36.9 36.5 76 29.7 2 NNE 5 N 35.9 36.1 29.971 0 0
3/18/18 15:30 36.5 36.6 36.4 77 30 2 NNE 7 NNE 35.9 36.1 29.975 0 0
3/18/18 16:00 36.4 36.5 36.2 77 29.9 2 N 5 N 35.8 36 29.979 0 0
3/18/18 16:30 36.2 36.4 36.1 78 30 2 N 5 NNE 35.6 35.9 29.981 0 0
3/18/18 17:00 35.9 36.2 35.9 79 30 1 N 4 N 35.9 35.6 29.986 0 0
3/18/18 17:30 35.7 36.1 35.6 78 29.5 1 N 3 NNW 35.7 35.4 29.991 0 0
3/18/18 18:00 35.3 35.8 35.2 78 29.1 0 -- 3 NNW 35.3 35 29.997 0 0
3/18/18 18:30 35 35.3 35 78 28.8 1 N 3 N 35 34.7 29.999 0 0
3/18/18 19:00 34.6 35 34.6 81 29.4 1 N 4 NNE 34.6 34.3 30.003 0 0
3/18/18 20:30 34.3 34.6 34.2 81 29.1 2 N 5 N 33.5 34 30.008 0 0
3/18/18 21:00 33.8 34.3 33.8 82 28.9 2 N 5 NNE 32.9 33.5 30.004 0 0
3/18/18 21:30 33.6 33.9 33.6 83 29 3 NNE 9 NNW 31.1 33.3 30 0 0
3/18/18 22:00 33.4 33.7 33.4 83 28.8 3 NNE 6 N 30.9 33.1 29.998 0 0
3/18/18 22:30 33.6 33.6 33.4 83 29 3 NNE 8 NNE 31.1 33.3 29.997 0 0
3/18/18 23:00 33.5 33.6 33.3 83 28.9 2 N 7 NNE 32.6 33.2 29.999 0 0
3/18/18 23:30 33.2 33.5 33.2 83 28.6 2 NNE 5 NE 32.3 32.9 30.001 0 0
3/19/18 0:00 33.1 33.3 33 85 29.1 3 N 6 N 30.6 32.9 30.003 0 0
3/19/18 0:30 32.9 33.1 32.8 85 28.9 3 N 8 NNE 30.3 32.7 30.009 0 0
3/19/18 1:00 33 33 32.8 85 29 2 N 5 NNE 32.1 32.8 30.011 0 0
3/19/18 1:30 33 33.1 32.9 85 29 1 N 7 NNE 33 32.8 30.023 0 0
3/19/18 2:00 33 33.1 32.9 86 29.3 1 N 6 NNW 33 32.8 30.033 0 0
3/19/18 2:30 32.9 33.1 32.9 86 29.2 2 N 5 N 32 32.7 30.035 0 0
3/19/18 3:00 33.1 33.1 32.8 86 29.4 1 N 4 N 33.1 32.9 30.039 0 0
3/19/18 3:30 32.7 33.1 32.7 86 29 2 N 6 NNW 31.7 32.5 30.03 0 0
3/19/18 4:00 32.7 32.7 32.6 87 29.3 2 N 5 N 31.7 32.5 30.032 0 0
3/19/18 4:30 32.9 33 32.6 86 29.2 1 N 5 NNW 32.9 32.7 30.039 0 0
3/19/18 5:00 32.9 33 32.8 87 29.5 1 N 5 N 32.9 32.7 30.044 0 0
3/19/18 5:30 33 33.1 32.9 86 29.3 0 -- 4 NW 33 32.8 30.045 0 0
3/19/18 6:00 32.9 33 32.8 86 29.2 0 -- 3 NNW 32.9 32.7 30.046 0 0
3/19/18 6:30 32.8 32.9 32.8 86 29.1 0 -- 3 NNW 32.8 32.6 30.047 0 0
3/19/18 7:00 32.7 32.8 32.7 87 29.3 1 N 5 N 32.7 32.5 30.046 0 0
3/19/18 7:30 32.7 32.8 32.6 88 29.5 1 N 5 NNE 32.7 32.5 30.055 0 0
3/19/18 8:00 32.6 32.8 32.6 88 29.4 0 -- 4 NNE 32.6 32.4 30.055 0 0
3/19/18 8:30 32.7 32.8 32.6 88 29.5 2 N 6 NNW 31.7 32.5 30.052 0 0
3/19/18 9:00 32.8 32.8 32.6 88 29.6 3 N 7 NNE 30.2 32.6 30.045 0 0
3/19/18 9:30 33.4 33.4 32.8 87 29.9 3 NNE 8 NNE 30.9 33.2 30.044 0 0
3/19/18 10:00 34.2 34.2 33.4 86 30.4 2 NE 7 NNE 33.4 33.9 30.05 0 0
3/19/18 10:30 34.8 34.8 34.1 84 30.5 2 NE 6 ENE 34 34.6 30.05 0 0
3/19/18 11:00 35.7 35.7 34.8 81 30.4 1 ENE 4 NE 35.7 35.4 30.055 0 0
3/19/18 11:30 36.5 36.5 35.6 80 30.9 0 -- 3 NE 36.5 36.2 30.057 0 0
3/19/18 12:00 37.6 37.6 36.5 77 31 0 -- 3 E 37.6 37.2 30.059 0 0
3/19/18 12:30 38.5 38.5 37.5 75 31.3 0 -- 2 ENE 38.5 38.1 30.058 0 0
3/19/18 13:00 38.2 38.5 38 74 30.6 1 NNE 3 NNW 38.2 37.8 30.057 0 0
3/19/18 13:30 37.2 38.4 37.2 77 30.7 1 WNW 7 WNW 37.2 36.8 30.057 0 0
3/19/18 14:00 35.4 37.2 35.3 84 31 3 WNW 8 WNW 33.2 35.2 30.059 0 0
3/19/18 14:30 35.2 35.5 35.1 86 31.4 1 NW 7 WNW 35.2 35 30.059 0 0
3/19/18 15:00 34.6 35.4 34.6 87 31.1 1 N 6 NNW 34.6 34.4 30.056 0 0
3/19/18 15:30 34.1 34.7 34.1 88 30.9 2 N 8 N 33.3 33.9 30.055 0 0
3/19/18 16:00 34 34.3 33.9 89 31.1 1 N 6 N 34 33.8 30.054 0 0
3/19/18 16:30 33.8 34.1 33.8 89 30.9 2 N 6 N 32.9 33.6 30.054 0 0
3/19/18 17:00 33.7 33.9 33.7 89 30.8 2 N 5 NNW 32.8 33.5 30.053 0 0
3/19/18 17:30 33.4 33.9 33.4 89 30.5 2 N 8 NNW 32.5 33.2 30.046 0 0
3/19/18 18:00 33.1 33.5 33.1 90 30.5 4 N 9 NNE 29.3 32.9 30.045 0 0
3/19/18 18:30 32.9 33.1 32.8 90 30.3 3 NNE 8 NNE 30.3 32.7 30.045 0 0
3/19/18 19:00 32.8 32.9 32.7 91 30.5 2 N 5 N 31.8 32.6 30.046 0 0
3/19/18 19:30 32.6 32.8 32.5 91 30.3 2 NNE 5 N 31.6 32.5 30.053 0 0
3/19/18 20:00 32.5 32.7 32.5 91 30.2 1 NE 4 N 32.5 32.4 30.054 0 0
3/19/18 20:30 32.4 32.5 32.4 91 30.1 0 -- 2 ENE 32.4 32.3 30.059 0 0
3/19/18 21:00 32.4 32.5 32.3 92 30.3 0 -- 2 ESE 32.4 32.3 30.056 0 0
3/19/18 21:30 32.5 32.5 32.3 91 30.2 0 -- 4 ESE 32.5 32.4 30.059 0 0
3/19/18 22:00 32.4 32.5 32.3 91 30.1 0 -- 4 ESE 32.4 32.3 30.063 0 0
3/19/18 22:30 32.3 32.4 32.2 91 30 1 ESE 3 ESE 32.3 32.2 30.058 0 0
3/19/18 23:00 32.2 32.3 32.1 92 30.1 0 -- 3 ESE 32.2 32.1 30.057 0 0
3/19/18 23:30 32.1 32.2 32 92 30 0 -- 1 SE 32.1 32 30.055 0 0
3/20/18 0:00 31.9 32.1 31.9 92 29.8 0 -- 0 -- 31.9 31.8 30.054 0 0
3/20/18 0:30 31.9 32 31.9 92 29.8 0 -- 0 -- 31.9 31.8 30.057 0 0
3/20/18 1:00 31.7 31.9 31.7 92 29.6 0 -- 1 ESE 31.7 31.6 30.052 0 0
3/20/18 1:30 31.7 31.8 31.5 92 29.6 0 -- 1 E 31.7 31.6 30.05 0 0
3/20/18 2:00 31.6 31.7 31.5 92 29.5 1 ESE 3 E 31.6 31.5 30.049 0 0
3/20/18 2:30 31.3 31.6 31.3 92 29.2 1 ESE 3 ESE 31.3 31.2 30.046 0 0
3/20/18 3:00 31 31.3 31 91 28.7 1 ESE 3 ESE 31 30.8 30.041 0 0
3/20/18 3:30 30.7 31 30.7 91 28.4 0 -- 3 ESE 30.7 30.5 30.033 0 0
3/20/18 4:00 30.3 30.8 30.3 91 28 1 ESE 4 SE 30.3 30.1 30.032 0 0
3/20/18 4:30 30.1 30.4 30.1 91 27.8 1 ESE 4 SE 30.1 29.9 30.026 0 0
3/20/18 5:00 29.6 30.1 29.5 91 27.3 1 ESE 3 SE 29.6 29.4 30.024 0 0
3/20/18 5:30 29 29.6 29 91 26.7 0 -- 3 ESE 29 28.8 30.022 0 0
3/20/18 6:00 28.7 29 28.7 91 26.4 1 ESE 4 ESE 28.7 28.5 30.027 0 0
3/20/18 6:30 28.8 28.8 28.5 91 26.5 1 ESE 3 SE 28.8 28.6 30.024 0 0
3/20/18 7:00 28 28.9 28 90 25.4 1 ESE 3 ESE 28 27.8 30.023 0 0
3/20/18 7:30 28.1 28.2 28 89 25.3 1 SE 4 SE 28.1 27.9 30.022 0 0
3/20/18 8:00 28.1 28.2 28 88 25 1 SE 5 SSE 28.1 27.9 30.03 0 0
3/20/18 8:30 27.5 28.1 27.4 87 24.1 2 SSE 7 ESE 26 27.3 30.035 0 0
3/20/18 9:00 27.7 27.7 27.4 87 24.3 1 ESE 4 ESE 27.7 27.5 30.036 0 0
3/20/18 9:30 27.7 27.7 27.4 86 24.1 2 SE 4 SE 26.2 27.5 30.031 0 0
3/20/18 10:00 28 28.1 27.6 84 23.8 1 SE 5 SSE 28 27.8 30.033 0 0
3/20/18 10:30 28.6 28.7 28 83 24.1 2 ESE 6 ESE 27.2 28.4 30.032 0 0
3/20/18 11:00 28.9 29 28.3 82 24.1 3 SSE 9 SSE 25.8 28.6 30.039 0 0
3/20/18 11:30 28.8 29 28.6 82 24 3 SSE 8 SSE 25.7 28.5 30.04 0 0
3/20/18 12:00 29.6 29.6 28.7 81 24.5 3 SSE 9 SSE 26.6 29.3 30.04 0 0
3/20/18 12:30 29.9 30 29.5 79 24.2 3 SSE 8 SSE 26.9 29.6 30.039 0 0
3/20/18 13:00 30.9 31 29.8 78 24.8 4 SSE 11 SSE 26.8 30.6 30.04 0 0
3/20/18 13:30 30.9 31.7 30.7 78 24.8 4 SSE 11 SSE 26.8 30.6 30.039 0 0
3/20/18 14:00 31.6 31.6 30.9 79 25.8 3 SSE 8 SE 28.9 31.3 30.033 0 0
3/20/18 14:30 31.7 31.9 31.3 79 25.9 3 SSE 9 SSE 29 31.4 30.028 0 0
3/20/18 15:00 31.8 32.5 31.7 79 26 3 SSE 9 SSE 29.1 31.5 30.025 0 0
3/20/18 15:30 32.2 32.5 31.8 79 26.4 3 SSE 7 SSE 29.5 31.9 30.021 0 0
3/20/18 16:00 32.2 32.6 32.1 79 26.4 2 SSE 7 SSE 31.2 31.9 30.021 0 0
3/20/18 16:30 32.2 32.5 32 78 26.1 2 SSE 6 SSE 31.2 31.9 30.022 0 0
3/20/18 17:00 32.2 32.3 31.7 78 26.1 1 SSE 6 SSE 32.2 31.9 30.027 0 0
3/20/18 17:30 32.1 32.3 32 78 26 1 SSW 5 SSE 32.1 31.8 30.03 0 0
3/20/18 18:00 32.1 32.4 31.8 78 26 1 SE 4 SSE 32.1 31.8 30.036 0 0
3/20/18 18:30 31.6 32.1 31.6 81 26.4 0 -- 3 NNE 31.6 31.3 30.033 0 0
3/20/18 19:00 31.2 31.6 31.1 82 26.3 1 N 2 N 31.2 30.9 30.031 0 0
3/20/18 19:30 31 31.3 30.9 82 26.1 0 -- 2 N 31 30.7 30.037 0 0
3/20/18 20:00 30.8 31 30.7 84 26.5 0 -- 0 -- 30.8 30.6 30.036 0 0
3/20/18 20:30 30.6 30.8 30.6 85 26.6 0 -- 0 -- 30.6 30.4 30.042 0 0
3/20/18 21:00 30.2 30.6 30.1 86 26.5 0 -- 2 E 30.2 30 30.041 0 0
3/20/18 21:30 30.6 30.7 30.1 84 26.3 0 -- 3 SE 30.6 30.4 30.041 0 0
3/20/18 22:00 30.4 30.7 30.4 84 26.1 0 -- 2 SSE 30.4 30.2 30.044 0 0
3/20/18 22:30 29.7 30.5 29.7 85 25.7 0 -- 2 SSE 29.7 29.5 30.048 0 0
3/20/18 23:00 28.3 29.7 28.3 87 24.9 0 -- 0 -- 28.3 28.1 30.05 0 0
3/20/18 23:30 28.7 28.8 28 88 25.6 0 -- 0 -- 28.7 28.5 30.052 0 0
3/21/18 0:00 29.6 29.6 28.7 87 26.2 0 -- 3 SSE 29.6 29.4 30.05 0 0
3/21/18 0:30 29.8 29.9 29.6 87 26.4 1 SSE 4 SSE 29.8 29.6 30.049 0 0
3/21/18 1:00 29.7 29.8 29.5 87 26.3 0 -- 2 SSE 29.7 29.5 30.053 0 0
3/21/18 1:30 29.9 29.9 29.7 87 26.5 1 S 3 SSW 29.9 29.7 30.051 0 0
3/21/18 2:00 30.2 30.2 29.9 87 26.8 1 S 4 SSE 30.2 30 30.053 0 0
3/21/18 2:30 30.5 30.5 30.1 87 27.1 1 SSE 5 S 30.5 30.3 30.057 0 0
3/21/18 3:00 30.7 30.7 30.5 87 27.3 1 S 5 S 30.7 30.5 30.054 0 0
3/21/18 3:30 30.8 30.8 30.6 87 27.4 2 S 6 SSE 29.7 30.6 30.049 0 0
3/21/18 4:00 30.8 30.9 30.8 87 27.4 2 SSE 6 S 29.7 30.6 30.043 0 0
3/21/18 4:30 30.9 31 30.8 88 27.8 2 SSE 7 SSE 29.8 30.7 30.046 0 0
3/21/18 5:00 31.1 31.1 30.9 87 27.7 1 SSE 6 S 31.1 30.9 30.058 0 0
3/21/18 5:30 31.1 31.2 31 88 28 2 S 7 SSE 30 30.9 30.055 0 0
3/21/18 6:00 31.1 31.2 31 88 28 3 SSE 6 SSE 28.3 30.9 30.057 0 0
3/21/18 6:30 31.3 31.3 31 88 28.2 3 SSE 6 SSE 28.5 31.1 30.058 0 0
3/21/18 7:00 31.4 31.4 31.3 88 28.3 2 SSE 7 SSE 30.3 31.2 30.067 0 0
3/21/18 7:30 31.5 31.5 31.3 89 28.6 2 SSE 6 SSE 30.4 31.3 30.069 0 0
3/21/18 8:00 31.6 31.6 31.5 89 28.7 2 SSE 6 SSE 30.5 31.4 30.08 0 0
3/21/18 8:30 31.9 31.9 31.6 88 28.8 4 SSE 8 SSE 28 31.8 30.079 0 0
3/21/18 9:00 32.1 32.1 31.9 88 28.9 5 SSE 12 S 27.2 32 30.075 0 0
3/21/18 9:30 32.6 32.6 32.1 88 29.4 5 SSE 11 SSE 27.8 32.4 30.078 0 0
3/21/18 10:00 32.8 32.9 32.6 88 29.6 6 SSE 12 SSE 27.2 32.6 30.083 0 0
3/21/18 10:30 33.2 33.4 32.7 86 29.5 6 SSE 13 SSE 27.7 33 30.09 0 0
3/21/18 11:00 33.3 33.3 33 86 29.6 6 SSE 12 SSE 27.8 33.1 30.093 0 0
3/21/18 11:30 34.1 34.1 33.3 85 30.1 6 SSE 14 SSE 28.7 33.8 30.096 0 0
3/21/18 12:00 33.9 34.2 33.8 85 29.9 6 SSE 14 SSE 28.5 33.6 30.102 0 0
3/21/18 12:30 34.7 34.8 33.9 83 30.1 5 SSE 12 SE 30.2 34.4 30.104 0 0
3/21/18 13:00 34.4 34.9 34.4 82 29.5 6 SSE 14 S 29.1 34.1 30.113 0 0
3/21/18 13:30 34.7 34.7 34.4 83 30.1 5 S 12 SSE 30.2 34.4 30.115 0 0
3/21/18 14:00 35.7 35.7 34.6 80 30.1 4 SSW 11 SSE 32.4 35.4 30.116 0 0
3/21/18 14:30 36.4 36.6 35.7 78 30.2 5 S 12 SSE 32.2 36.1 30.117 0 0
3/21/18 15:00 36.4 36.5 35.8 78 30.2 4 SSE 12 SSE 33.2 36.1 30.115 0 0
3/21/18 15:30 36.5 36.9 36.4 78 30.3 4 SSE 10 SE 33.3 36.2 30.12 0 0
3/21/18 16:00 36.2 36.6 36.2 77 29.7 2 SSW 7 SW 35.6 35.8 30.122 0 0
3/21/18 16:30 36.3 36.4 36.1 78 30.1 3 S 9 S 34.2 36 30.124 0 0
3/21/18 17:00 36.3 36.3 36.1 78 30.1 3 S 8 SSE 34.2 36 30.128 0 0
3/21/18 17:30 36.3 36.5 36.2 79 30.4 3 SSE 8 SSE 34.2 36 30.131 0 0
3/21/18 18:00 36.4 36.4 36.3 79 30.5 2 S 6 S 35.8 36.1 30.139 0 0
3/21/18 18:30 36.3 36.5 36.3 80 30.7 2 SSE 6 SSE 35.7 36 30.149 0 0
3/21/18 19:00 36.2 36.4 36.2 80 30.6 1 S 6 SSW 36.2 35.9 30.153 0 0
3/21/18 19:30 35.9 36.3 35.9 81 30.6 0 -- 2 SSE 35.9 35.6 30.162 0 0
3/21/18 20:00 35.7 36 35.7 82 30.7 0 -- 0 -- 35.7 35.4 30.162 0 0
3/21/18 20:30 35.6 35.8 35.5 83 30.9 0 -- 2 SSE 35.6 35.4 30.169 0 0
3/21/18 21:00 35.4 35.7 35.3 83 30.8 0 -- 0 -- 35.4 35.2 30.181 0 0
3/21/18 21:30 35.2 35.5 35.1 84 30.9 0 -- 0 -- 35.2 35 30.184 0 0
3/21/18 22:00 35.1 35.3 35 85 31 0 -- 0 -- 35.1 34.9 30.196 0 0
3/21/18 22:30 35.1 35.2 34.9 85 31 0 -- 0 -- 35.1 34.9 30.201 0 0
3/21/18 23:00 34.7 35.1 34.7 85 30.7 0 -- 0 -- 34.7 34.5 30.209 0 0
3/21/18 23:30 34.1 34.8 34.1 86 30.4 0 -- 0 -- 34.1 33.8 30.216 0 0
3/22/18 0:00 34 34.3 33.9 87 30.5 0 -- 0 -- 34 33.7 30.218 0 0
3/22/18 0:30 33.6 34.1 33.6 87 30.1 0 -- 0 -- 33.6 33.4 30.219 0 0
3/22/18 1:00 33 33.6 33 88 29.8 0 -- 0 -- 33 32.8 30.226 0 0
3/22/18 1:30 32.8 33 32.7 88 29.6 0 -- 0 -- 32.8 32.6 30.226 0 0
3/22/18 2:00 32.8 33 32.7 88 29.6 0 -- 0 -- 32.8 32.6 30.231 0 0
3/22/18 2:30 32.9 33.1 32.6 88 29.7 0 -- 0 -- 32.9 32.7 30.237 0 0
3/22/18 3:00 33.4 33.4 32.9 88 30.2 0 -- 3 SSE 33.4 33.2 30.239 0 0
3/22/18 3:30 32.2 33.5 32.2 88 29 0 -- 3 S 32.2 32 30.24 0 0
3/22/18 4:00 31.7 32.2 31.6 90 29.1 0 -- 0 -- 31.7 31.6 30.247 0 0
3/22/18 4:30 32.4 32.5 31.7 90 29.8 0 -- 0 -- 32.4 32.3 30.25 0 0
3/22/18 5:00 32.7 33 32.4 89 29.8 0 -- 1 S 32.7 32.5 30.258 0 0
3/22/18 5:30 32.4 32.7 32.3 89 29.5 0 -- 0 -- 32.4 32.2 30.262 0 0
3/22/18 6:00 32.3 32.5 32.3 89 29.4 0 -- 0 -- 32.3 32.2 30.272 0 0
3/22/18 6:30 32.3 32.5 32.3 89 29.4 0 -- 0 -- 32.3 32.2 30.283 0 0
3/22/18 7:00 31.9 32.3 31.8 90 29.3 0 -- 0 -- 31.9 31.8 30.291 0 0
3/22/18 7:30 31.6 32 31.5 90 29 0 -- 0 -- 31.6 31.5 30.299 0 0
3/22/18 8:00 32.1 32.1 31.5 90 29.5 0 -- 0 -- 32.1 32 30.312 0 0
3/22/18 8:30 32.6 32.6 32 90 30 0 -- 1 S 32.6 32.4 30.315 0 0
3/22/18 9:00 33.5 33.5 32.6 89 30.6 0 -- 2 E 33.5 33.3 30.321 0 0
3/22/18 9:30 34.2 34.3 33.5 87 30.7 1 N 3 N 34.2 34 30.326 0 0
3/22/18 10:00 34.7 34.8 34.3 86 30.9 2 N 4 NNE 33.9 34.5 30.335 0 0
3/22/18 10:30 35.5 35.5 34.7 85 31.4 3 NNE 5 N 33.3 35.3 30.339 0 0
3/22/18 11:00 37 37 35.5 82 32 3 NNE 7 NNE 35 36.7 30.34 0 0
3/22/18 11:30 37.2 37.3 36.5 83 32.5 3 ENE 7 NE 35.2 37 30.342 0 0
3/22/18 12:00 38.7 38.8 37 79 32.7 3 NE 6 NNE 36.9 38.4 30.343 0 0
3/22/18 12:30 39.7 39.7 38.4 77 33.1 3 NE 8 N 38 39.3 30.34 0 0
3/22/18 13:00 39.9 40 38.9 76 32.9 3 NE 7 E 38.3 39.4 30.338 0 0
3/22/18 13:30 40.6 40.7 39.7 75 33.3 3 ENE 7 SE 39.1 40.2 30.339 0 0
3/22/18 14:00 40.9 41.5 40.1 73 32.9 3 N 6 NNW 39.4 40.4 30.341 0 0
3/22/18 14:30 41.7 41.7 40.7 74 34 5 NNE 9 NNE 38.4 41.3 30.337 0 0
3/22/18 15:00 40.8 41.7 40.5 76 33.8 5 NNE 10 N 37.4 40.4 30.333 0 0
3/22/18 15:30 41.3 41.7 40.6 74 33.6 6 NNE 10 NNE 37.3 40.9 30.333 0 0
3/22/18 16:00 40.5 41.4 40.2 76 33.5 5 NNE 10 NNE 37 40.1 30.333 0 0
3/22/18 16:30 40.4 41.1 40.4 76 33.4 6 NNE 11 NNE 36.2 40 30.336 0 0
3/22/18 17:00 40.5 40.9 40.2 77 33.9 6 NNE 11 N 36.3 40.1 30.339 0 0
3/22/18 17:30 39.7 40.7 39.7 78 33.4 5 NNE 10 N 36.1 39.3 30.335 0 0
3/22/18 18:00 39.3 39.7 39.3 77 32.7 4 NE 9 NE 36.5 38.9 30.329 0 0
3/22/18 18:30 38.6 39.3 38.5 77 32 4 NE 10 NE 35.7 38.2 30.33 0 0
3/22/18 19:00 37.6 38.6 37.6 79 31.7 4 NE 10 NE 34.5 37.3 30.334 0 0
3/22/18 19:30 36.4 37.6 36.4 81 31.1 4 NE 8 NE 33.2 36.1 30.343 0 0
3/22/18 20:00 35.3 36.4 35.3 84 30.9 2 NE 7 NE 34.6 35.1 30.345 0 0
3/22/18 20:30 35.1 35.4 35 84 30.8 2 NE 5 NNE 34.4 34.9 30.353 0 0
3/22/18 21:00 34.4 35.1 34.3 85 30.4 2 NE 5 NE 33.6 34.1 30.358 0 0
3/22/18 21:30 34.1 34.4 34 86 30.4 2 NE 5 NNE 33.3 33.8 30.358 0 0
3/22/18 22:00 33.5 34.1 33.5 86 29.8 2 NE 6 NE 32.6 33.3 30.361 0 0
3/22/18 22:30 33.3 33.6 33.2 86 29.6 1 NE 3 NE 33.3 33.1 30.369 0 0
3/22/18 23:00 33.4 33.6 33.3 85 29.4 1 NE 3 NE 33.4 33.2 30.365 0 0
3/22/18 23:30 33.4 33.5 33.2 85 29.4 1 NE 3 NE 33.4 33.2 30.359 0 0
3/23/18 0:00 33.5 33.6 33.3 84 29.2 0 -- 2 NE 33.5 33.2 30.364 0 0
3/23/18 0:30 33.5 33.9 33.5 84 29.2 1 NE 3 NE 33.5 33.2 30.363 0 0
3/23/18 1:00 33.7 33.7 33.4 83 29.1 0 -- 3 ENE 33.7 33.4 30.364 0 0
3/23/18 1:30 33.8 33.8 33.4 82 28.9 1 ENE 3 ENE 33.8 33.5 30.35 0 0
3/23/18 2:00 34.1 34.1 33.6 81 28.9 1 ESE 4 ESE 34.1 33.7 30.342 0 0
3/23/18 2:30 34.1 34.4 34.1 80 28.6 2 ESE 6 ESE 33.3 33.7 30.341 0 0
3/23/18 3:00 34.2 34.3 34 80 28.7 1 ESE 4 ESE 34.2 33.8 30.339 0 0
3/23/18 3:30 33.3 34.3 33.2 81 28.1 1 SE 6 SSE 33.3 33 30.334 0 0
3/23/18 4:00 32.1 33.3 32.1 81 26.9 1 SE 7 SE 32.1 31.8 30.326 0 0
3/23/18 4:30 32.4 32.6 32 80 26.9 3 SE 8 ESE 29.8 32.1 30.312 0 0
3/23/18 5:00 32.3 32.5 32.1 80 26.8 4 ESE 9 ESE 28.4 32 30.299 0 0
3/23/18 5:30 32.1 32.4 32.1 80 26.6 4 ESE 10 ESE 28.2 31.8 30.294 0 0
3/23/18 6:00 32.3 32.3 31.9 79 26.5 5 ESE 11 ESE 27.4 32 30.296 0 0
3/23/18 6:30 32 32.3 31.9 79 26.2 5 ESE 11 ESE 27.1 31.7 30.297 0 0
3/23/18 7:00 31.9 32.1 31.8 78 25.8 5 ESE 10 SE 27 31.6 30.296 0 0
3/23/18 7:30 31.7 32 31.6 78 25.6 4 ESE 9 SE 27.7 31.4 30.298 0 0
3/23/18 8:00 32 32 31.7 76 25.3 4 ESE 9 E 28.1 31.6 30.293 0 0
3/23/18 8:30 32.2 32.2 32 75 25.2 5 ESE 10 ESE 27.3 31.8 30.289 0 0
3/23/18 9:00 33.1 33.1 32.2 73 25.4 4 ESE 10 E 29.3 32.7 30.282 0 0
3/23/18 9:30 33.4 33.5 33.1 72 25.3 5 ESE 12 E 28.7 32.9 30.275 0 0
3/23/18 10:00 33.7 33.7 33.4 72 25.6 5 ESE 11 E 29.1 33.2 30.27 0 0
3/23/18 10:30 34.4 34.4 33.7 71 26 6 ESE 11 E 29.1 33.9 30.262 0 0
3/23/18 11:00 35 35 34.4 69 25.9 6 ESE 14 SE 29.8 34.5 30.25 0 0
3/23/18 11:30 35.4 35.5 35 69 26.2 6 ESE 12 ESE 30.3 34.8 30.24 0 0
3/23/18 12:00 35.7 35.7 35.4 67 25.8 6 ESE 14 SE 30.6 35.1 30.247 0 0
3/23/18 12:30 36.2 36.3 35.7 66 25.9 6 ESE 13 SE 31.2 35.5 30.245 0 0
3/23/18 13:00 36.8 36.9 36.2 66 26.5 6 ESE 12 E 31.9 36.1 30.231 0 0
3/23/18 13:30 37.4 37.4 36.8 63 25.9 7 ESE 13 ESE 32 36.7 30.221 0 0
3/23/18 14:00 37.6 37.7 37.3 62 25.7 7 ESE 16 ESE 32.2 36.8 30.201 0 0
3/23/18 14:30 37.9 38 37.6 56 23.6 8 SE 17 SSE 32 37 30.179 0 0
3/23/18 15:00 37.9 38.1 37.9 56 23.6 7 SE 14 SE 32.6 37 30.168 0 0
3/23/18 15:30 37.7 37.9 37.6 54 22.5 7 SE 18 ESE 32.4 36.8 30.154 0 0
3/23/18 16:00 38 38.1 37.5 55 23.3 7 ESE 16 SE 32.7 37.1 30.143 0 0
3/23/18 16:30 37.9 38.1 37.8 52 21.8 9 ESE 19 ESE 31.5 36.9 30.134 0 0
3/23/18 17:00 37.8 37.9 37.7 52 21.7 8 SE 18 ESE 31.9 36.8 30.144 0 0
3/23/18 17:30 37.3 37.8 37.3 54 22.2 8 SE 16 ESE 31.3 36.4 30.128 0 0
3/23/18 18:00 36.9 37.3 36.8 57 23.1 7 ESE 14 ESE 31.4 36 30.132 0 0
3/23/18 18:30 36.1 37 36.1 61 23.9 7 ESE 16 ESE 30.4 35.3 30.13 0 0
3/23/18 19:00 36.1 36.3 36.1 61 23.9 6 ESE 13 E 31.1 35.3 30.122 0 0
3/23/18 19:30 35.9 36.1 35.8 61 23.7 7 ESE 12 ESE 30.2 35.1 30.124 0 0
3/23/18 20:00 36 36.1 35.8 61 23.8 7 ESE 15 ESE 30.3 35.2 30.12 0 0
3/23/18 20:30 36.4 36.4 36 58 23 7 ESE 15 SE 30.8 35.6 30.126 0 0
3/23/18 21:00 36.2 36.4 36.2 57 22.4 6 ESE 13 SE 31.2 35.3 30.135 0 0
3/23/18 21:30 35.9 36.5 35.9 59 23 6 ESE 13 ESE 30.9 35.1 30.152 0 0
3/23/18 22:00 35.6 36 35.5 60 23.1 6 ESE 14 ESE 30.5 34.8 30.175 0 0
3/23/18 22:30 34.8 35.6 34.8 63 23.5 8 ESE 13 SE 28.3 34.2 30.18 0 0
3/23/18 23:00 33.5 34.8 33.5 67 23.7 8 ESE 16 SE 26.7 32.9 30.191 0 0
3/23/18 23:30 32.3 33.6 32.3 72 24.3 10 ESE 18 ESE 24.1 31.8 30.195 0 0
3/24/18 0:00 30.4 32.3 30.4 80 25 10 ESE 23 ESE 21.7 30.1 30.201 0 0
3/24/18 0:30 29.7 30.4 29.6 83 25.2 9 ESE 17 ESE 21.4 29.5 30.19 0 0
3/24/18 1:00 29.2 29.7 29.1 84 25 9 ESE 18 SSE 20.8 29 30.181 0 0
3/24/18 1:30 28.8 29.2 28.7 84 24.6 8 ESE 15 SE 20.9 28.6 30.179 0 0
3/24/18 2:00 28.8 28.8 28.7 84 24.6 8 ESE 15 SE 20.9 28.6 30.169 0 0
3/24/18 2:30 29 29 28.7 82 24.2 8 ESE 17 SSE 21.2 28.7 30.156 0 0
3/24/18 3:00 29 29.2 29 82 24.2 8 ESE 15 E 21.2 28.7 30.154 0 0
3/24/18 3:30 28.5 29.2 28.5 83 24 9 ESE 15 E 20 28.3 30.155 0 0
3/24/18 4:00 27.7 28.5 27.7 87 24.3 7 ESE 14 E 20.3 27.5 30.157 0 0
3/24/18 4:30 27.5 27.8 27.4 88 24.4 6 ESE 12 ESE 20.9 27.3 30.164 0 0
3/24/18 5:00 27.4 27.5 27.3 88 24.3 5 ESE 10 E 21.7 27.2 30.175 0 0
3/24/18 5:30 27.3 27.4 27.2 88 24.2 3 ESE 9 ESE 24 27.1 30.195 0 0
3/24/18 6:00 27.2 27.4 27.2 88 24.1 3 SSE 9 SSE 23.9 27 30.204 0 0
3/24/18 6:30 26.8 27.3 26.8 88 23.7 5 SE 12 ESE 21 26.7 30.216 0 0
3/24/18 7:00 26.5 26.8 26.4 87 23.2 6 ESE 14 ESE 19.7 26.3 30.235 0 0
3/24/18 7:30 26.4 26.5 26.3 87 23.1 5 ESE 12 ESE 20.5 26.2 30.235 0 0
3/24/18 8:00 26.3 26.5 26.3 87 23 5 ESE 11 E 20.4 26.1 30.234 0 0
3/24/18 8:30 26.6 26.7 26.3 87 23.3 5 ESE 10 ESE 20.7 26.4 30.238 0 0
3/24/18 9:00 26.8 26.9 26.6 85 22.9 5 ESE 11 ESE 21 26.6 30.234 0 0
3/24/18 9:30 27.3 27.3 26.7 84 23.1 5 ESE 12 ESE 21.6 27.1 30.231 0 0
3/24/18 10:00 28.4 28.4 27.3 80 23 5 SE 12 ESE 22.8 28.1 30.236 0 0
3/24/18 10:30 29.3 29.3 28.4 77 23 5 SE 12 SE 23.9 28.9 30.242 0 0
3/24/18 11:00 30.3 30.3 29.3 71 22 6 SSE 12 SSE 24.2 29.8 30.249 0 0
3/24/18 11:30 30.8 30.8 30.2 68 21.5 5 SSE 14 SSE 25.7 30.3 30.252 0 0
3/24/18 12:00 31.4 31.4 30.7 68 22.1 5 SSE 14 SSE 26.4 30.9 30.251 0 0
3/24/18 12:30 32.1 32.1 31.1 67 22.4 6 SSE 16 SSE 26.3 31.5 30.245 0 0
3/24/18 13:00 33 33 32 64 22.1 6 SE 14 SSE 27.4 32.4 30.233 0 0
3/24/18 13:30 33.6 33.6 32.9 63 22.3 5 SE 11 SSE 29 33 30.227 0 0
3/24/18 14:00 34.2 34.2 33.6 61 22.1 5 SE 11 SSE 29.7 33.5 30.226 0 0
3/24/18 14:30 35.3 35.5 34.1 56 21.2 5 SE 11 SE 31 34.5 30.222 0 0
3/24/18 15:00 35.7 35.9 35.1 57 21.9 8 SSE 14 SE 29.4 34.9 30.217 0 0
3/24/18 15:30 36.8 36.8 35.5 59 23.8 7 SSE 14 SSE 31.3 36 30.205 0 0
3/24/18 16:00 36.4 37 36.3 60 23.8 7 SSE 15 SSE 30.8 35.6 30.196 0 0
3/24/18 16:30 37.3 37.3 36.5 61 25.1 8 SSE 17 SSE 31.3 36.5 30.192 0 0
3/24/18 17:00 37.4 37.5 36.8 63 25.9 7 SSE 16 SSE 32 36.7 30.187 0 0
3/24/18 17:30 37.7 37.9 36.9 64 26.6 7 SSE 15 SSE 32.4 37 30.18 0 0
3/24/18 18:00 37.9 37.9 37.4 66 27.5 7 SSE 14 SE 32.6 37.2 30.179 0 0
3/24/18 18:30 37.1 37.9 37 67 27.2 6 SSE 14 S 32.3 36.4 30.175 0 0
3/24/18 19:00 36.3 37.1 36.2 70 27.4 5 SSE 12 S 32.1 35.7 30.179 0 0
3/24/18 19:30 35.2 36.3 35.2 72 27.1 5 SSE 12 SSE 30.8 34.7 30.174 0 0
3/24/18 20:00 33.9 35.3 33.9 76 27.1 3 SSE 7 S 31.5 33.4 30.174 0 0
3/24/18 20:30 34.4 34.6 33.9 75 27.3 5 SSE 11 SSE 29.9 33.9 30.176 0 0
3/24/18 21:00 33.8 34.4 33.7 76 27 8 SSE 16 SSE 27 33.3 30.166 0 0
3/24/18 21:30 33.6 33.9 33.4 78 27.5 8 SSE 14 SSE 26.8 33.2 30.173 0 0
3/24/18 22:00 33.8 33.9 33.6 79 28 7 SSE 16 SSE 27.7 33.4 30.182 0 0
3/24/18 22:30 34.1 34.1 33.8 77 27.6 8 SSE 14 SSE 27.4 33.6 30.176 0 0
3/24/18 23:00 33.7 34.1 33.7 73 26 7 SSE 13 SSE 27.5 33.2 30.174 0 0
3/24/18 23:30 33.4 33.8 33.4 72 25.3 7 SSE 14 SSE 27.2 32.9 30.171 0 0
3/25/18 0:00 33.3 33.5 33.3 73 25.6 6 SSE 13 SSE 27.8 32.8 30.169 0 0
3/25/18 0:30 33.3 33.3 33.1 74 25.9 6 SSE 11 SSE 27.8 32.9 30.164 0 0
3/25/18 1:00 33.1 33.3 33 75 26 5 SSE 10 SSE 28.4 32.7 30.152 0 0
3/25/18 1:30 32.8 33.1 32.7 75 25.7 7 SSE 14 SSE 26.5 32.4 30.139 0 0
3/25/18 2:00 32.9 32.9 32.6 74 25.5 8 SSE 16 SSE 25.9 32.5 30.13 0 0
3/25/18 2:30 32.9 33 32.7 73 25.2 9 SSE 19 SSE 25.4 32.5 30.114 0 0
3/25/18 3:00 33.2 33.2 32.9 71 24.8 10 SSE 18 SSE 25.2 32.7 30.099 0 0
3/25/18 3:30 33.3 33.3 33.1 70 24.6 11 SSE 19 SSE 24.9 32.8 30.09 0 0
3/25/18 4:00 33.4 33.5 33.3 68 24 9 SSE 18 SSE 26 32.9 30.12 0 0
3/25/18 4:30 33.2 33.4 33.1 69 24.1 9 SSE 16 SSE 25.7 32.7 30.119 0 0
3/25/18 5:00 32.9 33.3 32.9 70 24.2 11 SSE 20 SSE 24.4 32.4 30.078 0 0
3/25/18 5:30 33.1 33.1 32.8 71 24.7 14 SSE 23 SSE 23.4 32.6 30.067 0 0
3/25/18 6:00 32.9 33 32.8 71 24.5 13 SSE 23 S 23.5 32.4 30.067 0 0
3/25/18 6:30 32.9 33 32.8 72 24.9 12 SSE 23 SSE 23.9 32.4 30.082 0 0
3/25/18 7:00 33.1 33.2 32.9 73 25.4 11 SSE 26 SSE 24.6 32.7 30.075 0 0
3/25/18 7:30 32.8 33.1 32.8 75 25.7 10 SSE 22 SSE 24.7 32.4 30.085 0 0
3/25/18 8:00 32.9 32.9 32.8 74 25.5 9 SSE 21 SE 25.4 32.5 30.077 0 0
3/25/18 8:30 33.4 33.5 32.8 74 26 11 SSE 22 SSE 25 32.9 30.083 0 0
3/25/18 9:00 34.1 34.1 33 72 26 9 SSE 19 SSE 26.8 33.6 30.077 0 0
3/25/18 9:30 35.5 35.7 34.1 69 26.3 11 SSE 24 SSE 27.6 34.9 30.075 0 0
3/25/18 10:00 36.1 36.1 35.1 70 27.3 12 SSE 24 S 27.9 35.5 30.062 0 0
3/25/18 10:30 36 36.7 36 70 27.2 11 SSE 25 SSE 28.2 35.4 30.074 0 0
3/25/18 11:00 35.7 36.8 35.6 70 26.9 10 SSE 24 SSE 28.3 35.1 30.085 0 0
3/25/18 11:30 35.7 35.8 35.5 69 26.5 11 SSE 28 SSW 27.9 35.1 30.092 0 0
3/25/18 12:00 36.2 36.2 35.6 69 27 11 S 30 S 28.5 35.6 30.084 0 0
3/25/18 12:30 35.4 36.3 35.3 71 26.9 10 SSE 21 SSE 27.9 34.9 30.08 0 0
3/25/18 13:00 35.2 35.5 35.2 72 27.1 9 SSE 22 SSE 28.2 34.7 30.082 0 0
3/25/18 13:30 35.6 35.8 35.2 73 27.8 9 SSE 24 SW 28.7 35.1 30.076 0 0
3/25/18 14:00 35.8 35.9 35.6 72 27.7 9 S 25 SSE 28.9 35.3 30.063 0 0
3/25/18 14:30 36.1 36.2 35.7 71 27.6 9 S 22 SSE 29.3 35.5 30.058 0 0
3/25/18 15:00 35.7 36.1 35.6 72 27.6 8 SSE 23 S 29.4 35.2 30.063 0 0
3/25/18 15:30 35.5 35.8 35.5 72 27.4 8 S 26 S 29.1 35 30.061 0 0
3/25/18 16:00 35.2 35.6 35.2 74 27.7 7 S 19 SSE 29.4 34.8 30.07 0 0
3/25/18 16:30 34.5 35.2 34.5 76 27.7 7 S 17 SSE 28.5 34.1 30.07 0 0
3/25/18 17:00 34 34.6 33.9 79 28.2 6 SSE 16 S 28.6 33.6 30.062 0 0
3/25/18 17:30 33.6 33.9 33.5 81 28.4 5 S 15 SSW 29 33.3 30.07 0 0
3/25/18 18:00 33.3 33.6 33.3 80 27.8 6 SSE 16 S 27.8 33 30.07 0 0
3/25/18 18:30 33 33.3 33 81 27.8 6 S 15 SSE 27.4 32.7 30.08 0 0
3/25/18 19:00 31.9 33 31.9 86 28.2 4 SSE 15 SSE 28 31.7 30.082 0 0
3/25/18 19:30 31.4 32.1 31.4 88 28.3 5 SSE 11 SSE 26.4 31.2 30.083 0 0
3/25/18 20:00 31.4 31.5 31.3 88 28.3 5 SSE 12 SSE 26.4 31.2 30.086 0 0
3/25/18 20:30 31.5 31.5 31.2 87 28.1 6 SSE 13 S 25.6 31.3 30.088 0 0
3/25/18 21:00 31.9 32 31.4 84 27.6 5 SSE 11 SE 27 31.7 30.092 0 0
3/25/18 21:30 32 32 31.9 84 27.7 5 SSE 13 S 27.1 31.8 30.093 0 0
3/25/18 22:00 32 32.1 31.9 83 27.4 6 SSE 13 SSE 26.2 31.8 30.093 0 0
3/25/18 22:30 32 32.1 32 83 27.4 6 SSE 14 SSE 26.2 31.8 30.091 0 0
3/25/18 23:00 31.8 32.1 31.8 83 27.2 5 SSE 14 SSE 26.8 31.6 30.104 0 0
3/25/18 23:30 31.7 31.9 31.7 83 27.1 5 S 12 SSE 26.7 31.5 30.101 0 0
3/26/18 0:00 31.7 31.8 31.7 83 27.1 4 S 11 SSE 27.7 31.5 30.11 0 0
3/26/18 0:30 31.7 31.7 31.6 84 27.4 2 S 8 SSE 30.6 31.5 30.116 0 0
3/26/18 1:00 31.6 31.7 31.5 85 27.6 2 S 9 SSE 30.5 31.4 30.12 0 0
3/26/18 1:30 31.5 31.7 31.5 85 27.5 2 SSW 6 SSW 30.4 31.3 30.119 0 0
3/26/18 2:00 31.5 31.6 31.5 85 27.5 2 S 6 S 30.4 31.3 30.124 0 0
3/26/18 2:30 31.4 31.5 31.4 86 27.7 2 SSE 6 SSE 30.3 31.2 30.117 0 0
3/26/18 3:00 31.4 31.5 31.3 86 27.7 3 SSE 8 SSE 28.6 31.2 30.104 0 0
3/26/18 3:30 31.1 31.4 31.1 87 27.7 5 SSE 9 SSE 26 30.9 30.099 0 0
3/26/18 4:00 31.1 31.1 31 87 27.7 5 SSE 9 SSE 26 30.9 30.103 0 0
3/26/18 4:30 31 31.1 31 87 27.6 4 SSE 9 SSE 26.9 30.8 30.105 0 0
3/26/18 5:00 31 31 30.9 87 27.6 3 SSE 8 SE 28.2 30.8 30.103 0 0
3/26/18 5:30 31 31.1 30.9 87 27.6 3 SSE 9 SSE 28.2 30.8 30.096 0 0
3/26/18 6:00 31 31 30.9 87 27.6 4 SSE 10 SSE 26.9 30.8 30.089 0 0
3/26/18 6:30 31 31.1 31 87 27.6 5 SSE 10 SSE 25.9 30.8 30.084 0 0
3/26/18 7:00 30.8 31.1 30.8 87 27.4 5 SSE 10 SSE 25.7 30.6 30.081 0 0
3/26/18 7:30 30.8 30.8 30.7 88 27.7 2 SSE 6 SSE 29.7 30.6 30.092 0 0
3/26/18 8:00 30.7 30.8 30.6 89 27.8 2 SSE 5 SSE 29.5 30.5 30.09 0 0
3/26/18 8:30 30.9 30.9 30.6 89 28 0 -- 2 SSE 30.9 30.7 30.08 0 0
3/26/18 9:00 31 31 30.8 89 28.1 0 -- 2 ESE 31 30.8 30.068 0 0
3/26/18 9:30 31.1 31.2 30.9 89 28.2 0 -- 3 ENE 31.1 30.9 30.055 0 0
3/26/18 10:00 31.5 31.5 31.1 89 28.6 1 E 3 E 31.5 31.3 30.066 0 0
3/26/18 10:30 31.9 31.9 31.5 89 29 1 ESE 4 E 31.9 31.8 30.079 0 0
3/26/18 11:00 32.2 32.2 31.9 88 29 1 ESE 4 ESE 32.2 32 30.081 0 0
3/26/18 11:30 32.6 32.7 32.2 88 29.4 1 ESE 5 SSE 32.6 32.4 30.077 0 0
3/26/18 12:00 32.7 32.8 32.3 88 29.5 2 SSE 5 SSE 31.7 32.5 30.069 0 0
3/26/18 12:30 33.2 33.2 32.6 88 30 1 ESE 4 SSE 33.2 33 30.06 0 0
3/26/18 13:00 33.1 33.4 33 88 29.9 2 SSE 6 S 32.2 32.9 30.053 0 0
3/26/18 13:30 33.1 33.3 33 87 29.7 1 SE 5 S 33.1 32.9 30.045 0 0
3/26/18 14:00 33.1 33.2 33 87 29.7 2 SE 6 S 32.2 32.9 30.036 0 0
3/26/18 14:30 33.8 33.8 33.1 86 30.1 2 SE 7 SSE 32.9 33.5 30.027 0 0
3/26/18 15:00 33.7 34.2 33.6 86 30 3 SE 7 S 31.2 33.4 30.016 0 0
3/26/18 15:30 33.4 33.8 33.4 85 29.4 2 SE 6 ESE 32.5 33.2 30.012 0 0
3/26/18 16:00 33.4 33.8 33.3 85 29.4 4 SSE 7 SSE 29.7 33.2 30.007 0 0
3/26/18 16:30 33.2 33.5 33.2 84 28.9 3 SSE 6 SSE 30.7 33 29.999 0 0
3/26/18 17:00 33.1 33.2 33.1 84 28.8 2 SSE 6 SSE 32.2 32.9 29.998 0 0
3/26/18 17:30 33 33.2 32.8 85 29 3 SSE 8 SSE 30.4 32.8 29.999 0 0
3/26/18 18:00 33.1 33.2 33 85 29.1 1 SSE 6 SSE 33.1 32.9 30.006 0 0
3/26/18 18:30 33 33.2 32.9 84 28.7 0 -- 3 SSE 33 32.8 30.005 0 0
3/26/18 19:00 32.8 33 32.8 85 28.8 0 -- 2 S 32.8 32.6 30.001 0 0
3/26/18 19:30 32.6 32.8 32.6 84 28.3 0 -- 2 S 32.6 32.4 30.007 0 0
3/26/18 20:00 32.5 32.6 32.5 85 28.5 0 -- 3 W 32.5 32.3 30.009 0 0
3/26/18 20:30 32.4 32.5 32.4 86 28.7 0 -- 3 SW 32.4 32.2 30.013 0 0
3/26/18 21:00 32.3 32.5 32.3 87 28.9 0 -- 2 SW 32.3 32.1 30.017 0 0
3/26/18 21:30 32.3 32.4 32.3 87 28.9 0 -- 2 SW 32.3 32.1 30.017 0 0
3/26/18 22:00 32 32.3 31.9 88 28.8 1 W 3 W 32 31.9 30.015 0 0
3/26/18 22:30 32 32 31.9 88 28.8 0 -- 3 WNW 32 31.9 30.007 0 0
3/26/18 23:00 31.7 32.1 31.7 88 28.6 0 -- 3 WNW 31.7 31.5 30.011 0 0
3/26/18 23:30 31.7 31.8 31.6 87 28.3 0 -- 1 WNW 31.7 31.5 29.999 0 0
3/27/18 0:00 31.4 31.7 31.3 89 28.5 0 -- 1 WNW 31.4 31.2 29.997 0 0
3/27/18 0:30 31.6 31.7 31.4 88 28.5 0 -- 3 SSE 31.6 31.4 29.983 0 0
3/27/18 1:00 31.6 31.7 31.4 88 28.5 1 W 6 W 31.6 31.4 29.987 0 0
3/27/18 1:30 30.6 31.7 30.6 88 27.5 1 W 4 NW 30.6 30.4 29.967 0 0
3/27/18 2:00 31.2 31.2 30.2 88 28.1 1 W 3 WSW 31.2 31 29.974 0 0
3/27/18 2:30 31.7 31.7 31.2 87 28.3 2 W 8 W 30.6 31.5 29.99 0 0
3/27/18 3:00 30.7 31.7 30.6 88 27.6 3 W 10 W 27.8 30.5 29.99 0 0
3/27/18 3:30 31 31 30.6 89 28.1 1 WSW 7 W 31 30.8 29.982 0 0
3/27/18 4:00 31.2 31.3 30.9 88 28.1 2 W 6 W 30.1 31 29.988 0 0
3/27/18 4:30 31.6 31.6 31.2 88 28.5 2 W 9 W 30.5 31.4 29.98 0 0
3/27/18 5:00 31.7 31.8 31.5 88 28.6 1 WSW 4 WSW 31.7 31.5 29.977 0 0
3/27/18 5:30 31.2 31.7 31.2 88 28.1 0 -- 4 SW 31.2 31 29.982 0 0
3/27/18 6:00 31.1 31.4 31 88 28 0 -- 3 SW 31.1 30.9 29.984 0 0
3/27/18 6:30 30.9 31.1 30.8 88 27.8 2 WSW 8 WSW 29.8 30.7 29.986 0 0
3/27/18 7:00 29.5 30.9 29.5 88 26.4 1 WSW 7 WSW 29.5 29.3 29.992 0 0
3/27/18 7:30 29.2 29.6 29.1 88 26.1 0 -- 3 SW 29.2 29 29.998 0 0
3/27/18 8:00 29.4 29.5 29.1 87 26 0 -- 3 SW 29.4 29.2 29.998 0 0
3/27/18 8:30 30.5 30.5 29.3 85 26.5 1 SSW 3 SSW 30.5 30.3 30.001 0 0
3/27/18 9:00 32.4 32.4 30.5 83 27.8 1 SSW 6 SSE 32.4 32.2 29.998 0 0
3/27/18 9:30 33.5 33.5 32.4 81 28.3 2 SW 9 SSW 32.6 33.2 30.002 0 0
3/27/18 10:00 33.9 34.2 33.4 78 27.8 2 SSW 9 WSW 33.1 33.5 30.001 0 0
3/27/18 10:30 34.7 34.8 33.9 76 27.9 3 WSW 13 WSW 32.4 34.3 29.999 0 0
3/27/18 11:00 36.5 36.5 34.7 72 28.3 3 WSW 10 WSW 34.4 36 29.996 0 0
3/27/18 11:30 37.1 37.3 36.4 70 28.2 3 WSW 11 SW 35.1 36.5 29.998 0 0
3/27/18 12:00 38.6 38.6 37.1 70 29.7 3 WSW 9 WSW 36.8 38 29.993 0 0
3/27/18 12:30 39.5 39.7 38.6 68 29.8 3 WSW 11 W 37.8 38.9 29.988 0 0
3/27/18 13:00 41 41.3 39.6 64 29.7 3 WSW 11 W 39.5 40.3 29.984 0 0
3/27/18 13:30 42.2 42.4 41 64 30.9 3 WSW 10 WSW 40.8 41.5 29.977 0 0
3/27/18 14:00 44 44.1 42.1 61 31.4 3 SW 11 W 42.9 43.2 29.97 0 0
3/27/18 14:30 44.5 44.6 43.5 60 31.5 4 WSW 11 WSW 42.5 43.7 29.961 0 0
3/27/18 15:00 45.7 45.8 44.5 58 31.8 5 WSW 13 W 43.1 44.8 29.95 0 0
3/27/18 15:30 46.3 46.7 45.7 56 31.4 4 WSW 12 WNW 44.6 45.3 29.935 0 0
3/27/18 16:00 47.1 47.3 46.1 55 31.7 4 WSW 12 WSW 45.5 46.1 29.928 0 0
3/27/18 16:30 47.8 47.9 46.9 55 32.4 4 WSW 11 SW 46.4 46.8 29.925 0 0
3/27/18 17:00 48.4 48.5 47.6 53 32 3 SW 10 WSW 47.8 47.3 29.917 0 0
3/27/18 17:30 47.5 48.4 47.5 59 33.9 4 S 11 SSE 46 46.7 29.914 0 0
3/27/18 18:00 46.7 47.5 46.5 65 35.6 4 SSE 12 SSE 45 46 29.909 0 0
3/27/18 18:30 46.6 47 46.5 61 33.9 3 S 11 SSE 45.9 45.8 29.897 0 0
3/27/18 19:00 44.4 46.5 44.4 70 35.2 3 SSE 9 S 43.3 43.9 29.89 0 0
3/27/18 19:30 43.4 44.5 43.4 73 35.3 2 S 6 S 43.4 42.9 29.881 0 0
3/27/18 20:00 43 43.5 42.9 74 35.3 3 S 9 S 41.8 42.6 29.865 0 0
3/27/18 20:30 42.1 43 42.1 78 35.7 3 S 8 SSE 40.7 41.8 29.853 0 0
3/27/18 21:00 41.7 42.1 41.4 82 36.6 3 SSE 8 SSE 40.3 41.4 29.851 0 0
3/27/18 21:30 40.8 41.7 40.8 82 35.7 5 SSE 9 SSE 37.4 40.5 29.848 0 0
3/27/18 22:00 39.7 40.9 39.7 82 34.7 6 SSE 11 SSE 35.4 39.4 29.829 0 0
3/27/18 22:30 38.9 39.7 38.9 83 34.2 7 SSE 14 SSE 33.8 38.7 29.812 0 0
3/27/18 23:00 38 38.9 38 82 33 6 SSE 13 SSE 33.4 37.7 29.791 0 0
3/27/18 23:30 38 38.1 37.8 81 32.7 5 SSE 13 SSE 34.1 37.7 29.781 0 0
3/28/18 0:00 37.3 38.1 37.3 80 31.7 6 S 14 SSE 32.5 37 29.763 0 0
3/28/18 0:30 36.8 37.3 36.7 80 31.2 5 SSE 16 SSE 32.7 36.5 29.751 0 0
3/28/18 1:00 37.3 37.3 36.6 79 31.4 5 SSE 12 SSE 33.3 37 29.736 0 0
3/28/18 1:30 37.6 37.6 37.3 77 31 5 S 16 S 33.7 37.2 29.724 0 0
3/28/18 2:00 37.7 37.7 37.5 76 30.8 5 S 13 SSE 33.8 37.3 29.717 0 0
3/28/18 2:30 37.3 37.7 37.2 77 30.7 5 S 15 SSE 33.3 36.9 29.709 0 0
3/28/18 3:00 37.5 37.6 37.1 76 30.6 4 S 12 SSE 34.4 37.1 29.709 0 0
3/28/18 3:30 37.1 37.6 37.1 77 30.6 3 S 8 S 35.1 36.7 29.695 0 0
3/28/18 4:00 36.6 37.1 36.5 78 30.4 4 SSE 10 SSE 33.4 36.3 29.667 0 0
3/28/18 4:30 36.5 36.6 36.4 78 30.3 5 SSE 10 SSE 32.4 36.2 29.652 0 0
3/28/18 5:00 36.6 36.7 36.4 77 30.1 5 SSE 13 S 32.5 36.2 29.641 0 0
3/28/18 5:30 36.1 36.7 36.1 79 30.2 4 S 11 SSE 32.8 35.8 29.637 0 0
3/28/18 6:00 36.6 36.7 36 78 30.4 4 S 11 S 33.4 36.3 29.646 0 0
3/28/18 6:30 37.7 37.7 36.6 75 30.5 1 SSW 7 SSE 37.7 37.3 29.662 0 0
3/28/18 7:00 38.6 38.6 37.7 74 31 4 WSW 14 WSW 35.7 38.2 29.671 0 0
3/28/18 7:30 38.4 38.9 38.3 76 31.5 7 W 17 WNW 33.2 38 29.708 0 0
3/28/18 8:00 38.1 38.5 38.1 79 32.2 7 WNW 15 W 32.8 37.8 29.72 0 0
3/28/18 8:30 37.8 38.1 37.8 79 31.9 6 WNW 13 WNW 33.1 37.5 29.751 0 0
3/28/18 9:00 38.2 38.2 37.7 78 31.9 8 WNW 18 WNW 32.4 37.9 29.752 0 0
3/28/18 9:30 39.5 39.5 38.2 76 32.6 10 WNW 21 NW 33 39.1 29.77 0 0
3/28/18 10:00 38.9 39.7 38.9 76 32 10 WNW 20 WSW 32.3 38.5 29.78 0 0
3/28/18 10:30 38.4 38.9 38.4 77 31.8 8 WNW 18 WNW 32.6 38 29.791 0 0
3/28/18 11:00 37.3 38.4 37.3 78 31.1 8 WNW 17 NW 31.3 37 29.825 0 0
3/28/18 11:30 36.7 37.3 36.7 79 30.8 9 WNW 18 NW 30 36.4 29.843 0 0
3/28/18 12:00 37.3 37.9 36.8 75 30.1 6 WNW 16 NW 32.5 36.9 29.858 0 0
3/28/18 12:30 36.9 37.7 36.6 74 29.4 7 NW 24 W 31.4 36.5 29.877 0 0
3/28/18 13:00 35.8 36.8 35.6 72 27.7 7 NNW 18 NW 30.1 35.3 29.901 0 0
3/28/18 13:30 35.3 36.1 35.3 71 26.8 7 NW 18 NW 29.5 34.8 29.917 0 0
3/28/18 14:00 33.5 35.3 33.5 69 24.4 7 NW 17 WNW 27.3 33 29.94 0 0
3/28/18 14:30 33.3 33.8 33.1 71 24.9 7 NW 17 N 27.1 32.8 29.949 0 0
3/28/18 15:00 33.2 34.4 33 68 23.8 8 NW 20 WNW 26.3 32.7 29.965 0 0
3/28/18 15:30 32.4 33.7 32.4 69 23.4 7 NW 18 WNW 26 31.9 29.976 0 0
3/28/18 16:00 31.2 32.4 30.9 71 22.9 8 WNW 20 WNW 23.9 30.7 29.977 0 0
3/28/18 16:30 30.5 31.3 30.1 69 21.5 6 NW 18 NNW 24.4 30 29.992 0 0
3/28/18 17:00 30.3 30.5 30 70 21.7 6 WNW 18 WNW 24.2 29.8 30.001 0 0
3/28/18 17:30 30 30.6 29.7 70 21.4 6 NW 17 N 23.8 29.5 30.005 0 0
3/28/18 18:00 29.5 30.1 29.5 68 20.2 4 NNW 13 NNW 25.2 29 30.013 0 0
3/28/18 18:30 28.7 29.6 28.7 76 22.1 5 N 13 NW 23.2 28.3 30.023 0 0
3/28/18 19:00 27.7 28.7 27.6 77 21.4 6 N 11 NNW 21.1 27.3 30.027 0 0
3/28/18 19:30 27.4 28 27.4 78 21.4 4 N 10 NNE 22.8 27.1 30.032 0 0
3/28/18 20:00 27.2 27.5 27.2 78 21.2 3 N 9 NNE 23.9 26.9 30.045 0 0
3/28/18 20:30 27.2 27.2 26.9 76 20.6 2 NNW 10 NW 25.7 26.8 30.063 0 0
3/28/18 21:00 26.3 27.2 26.3 77 20.1 4 NNE 9 N 21.5 25.9 30.073 0 0
3/28/18 21:30 26 26.4 25.9 77 19.8 3 NNE 8 NNW 22.5 25.6 30.082 0 0
3/28/18 22:00 26.1 26.2 26 77 19.9 2 NNE 5 NE 24.5 25.7 30.09 0 0
3/28/18 22:30 26.3 26.3 26.1 76 19.8 1 NNE 4 N 26.3 25.9 30.097 0 0
3/28/18 23:00 26.3 26.4 26.3 75 19.5 1 NNW 6 NNW 26.3 25.9 30.113 0 0
3/28/18 23:30 26.3 26.5 26.2 74 19.1 1 N 4 NW 26.3 25.9 30.122 0 0
3/29/18 0:00 26.2 26.3 26.1 73 18.7 1 N 3 N 26.2 25.8 30.122 0 0
3/29/18 0:30 26.1 26.3 26 74 18.9 1 NW 4 NNE 26.1 25.7 30.127 0 0
3/29/18 1:00 26 26.1 26 74 18.8 1 WNW 3 W 26 25.6 30.13 0 0
3/29/18 1:30 26.1 26.1 26 71 18 1 N 4 WNW 26.1 25.7 30.137 0 0
3/29/18 2:00 26.1 26.2 26.1 69 17.3 1 N 5 NNE 26.1 25.7 30.139 0 0
3/29/18 2:30 26 26.2 26 71 17.9 1 WNW 3 NW 26 25.6 30.144 0 0
3/29/18 3:00 26.1 26.1 26 71 18 1 WNW 6 WNW 26.1 25.7 30.147 0 0
3/29/18 3:30 26.1 26.2 26 72 18.3 1 W 7 WNW 26.1 25.7 30.141 0 0
3/29/18 4:00 25.3 26.1 25.3 72 17.5 4 WNW 9 WNW 20.3 24.9 30.141 0 0
3/29/18 4:30 24.8 25.3 24.8 73 17.4 3 WNW 8 WNW 21.2 24.5 30.138 0 0
3/29/18 5:00 24 24.8 24 74 16.9 3 WNW 9 W 20.3 23.7 30.13 0 0
3/29/18 5:30 23.2 24.1 23.2 75 16.4 2 WNW 7 WNW 21.3 22.9 30.132 0 0
3/29/18 6:00 22.1 23.2 22.1 76 15.7 2 WNW 7 WNW 20.1 21.8 30.134 0 0
3/29/18 6:30 21.4 22.1 21.4 76 15 2 WNW 7 WNW 19.3 21.1 30.138 0 0
3/29/18 7:00 20.7 21.5 20.7 76 14.3 2 WNW 8 W 18.5 20.4 30.146 0 0
3/29/18 7:30 20.5 20.8 20.4 77 14.4 2 W 7 WSW 18.3 20.2 30.161 0 0
3/29/18 8:00 21.2 21.2 20.5 76 14.8 3 WNW 9 WNW 17.1 20.9 30.172 0 0
3/29/18 8:30 22.6 22.6 21.1 75 15.9 4 WNW 11 WNW 17.2 22.3 30.178 0 0
3/29/18 9:00 23.4 23.6 22.6 72 15.7 5 WNW 13 W 17 23 30.196 0 0
3/29/18 9:30 24 24 23.3 71 16 5 WNW 13 NW 17.7 23.6 30.196 0 0
3/29/18 10:00 25.2 25.3 24 69 16.5 5 WNW 14 WNW 19.1 24.8 30.211 0 0
3/29/18 10:30 26.5 26.5 24.7 69 17.7 6 WNW 14 NW 19.7 26.1 30.218 0 0
3/29/18 11:00 26.6 26.6 25.6 69 17.8 7 WNW 18 WNW 19 26.2 30.23 0 0
3/29/18 11:30 27 27 25.3 68 17.8 6 WNW 15 NW 20.3 26.6 30.236 0 0
3/29/18 12:00 28 28.2 26.6 69 19.1 4 NNW 12 N 23.5 27.5 30.23 0 0
3/29/18 12:30 29.4 29.5 28 65 19.1 4 N 11 NNE 25.1 28.8 30.232 0 0
3/29/18 13:00 29 29.9 28.2 63 18 4 NW 15 WNW 24.6 28.4 30.237 0 0
3/29/18 13:30 29.6 29.9 28.7 63 18.5 5 WNW 14 WNW 24.3 29 30.235 0 0
3/29/18 14:00 30.2 30.2 29.1 67 20.6 5 WNW 14 WNW 25 29.6 30.233 0 0
3/29/18 14:30 29.5 30.5 29 62 18.1 3 NW 10 WNW 26.5 28.9 30.234 0 0
3/29/18 15:00 28.4 29.8 28.4 63 17.4 5 WNW 13 WNW 22.8 27.8 30.232 0 0
3/29/18 15:30 29.2 29.5 28.3 64 18.5 4 WNW 10 NW 24.8 28.6 30.227 0 0
3/29/18 16:00 29 29.8 29 62 17.6 3 NW 11 NW 25.9 28.4 30.226 0 0
3/29/18 16:30 29.3 29.3 28.5 66 19.3 4 WNW 11 NW 25 28.7 30.226 0 0
3/29/18 17:00 29 29.6 28.7 66 19.1 4 NW 10 WNW 24.6 28.4 30.229 0 0
3/29/18 17:30 29.2 29.8 29.1 66 19.2 3 NW 9 WNW 26.1 28.6 30.227 0 0
3/29/18 18:00 29.9 29.9 29.1 67 20.3 3 NW 9 WNW 26.9 29.3 30.231 0 0
3/29/18 18:30 28.5 29.9 28.4 66 18.6 4 WNW 10 NW 24 28 30.233 0 0
3/29/18 19:00 28.4 28.5 28.3 69 19.5 3 WNW 8 WNW 25.2 27.9 30.238 0 0
3/29/18 19:30 28.2 28.5 28.2 70 19.7 2 WNW 8 NW 26.8 27.7 30.239 0 0
3/29/18 20:00 28 28.2 28 69 19.1 1 NW 6 WNW 28 27.5 30.235 0 0
3/29/18 20:30 28 28.1 27.9 70 19.5 1 N 5 WNW 28 27.5 30.24 0 0
3/29/18 21:00 27.8 28 27.8 69 18.9 1 WNW 4 N 27.8 27.3 30.239 0 0
3/29/18 21:30 27.8 27.9 27.7 68 18.6 1 NE 3 NNE 27.8 27.3 30.226 0 0
3/29/18 22:00 27 27.9 26.9 71 18.8 0 -- 2 ENE 27 26.6 30.233 0 0
3/29/18 22:30 27.4 27.4 26.8 68 18.2 0 -- 0 -- 27.4 26.9 30.227 0 0
3/29/18 23:00 27.7 27.7 27.4 69 18.8 0 -- 1 E 27.7 27.2 30.231 0 0
3/29/18 23:30 27.6 27.8 27.5 68 18.4 0 -- 1 E 27.6 27.1 30.228 0 0
3/30/18 0:00 26.8 27.6 26.8 70 18.3 0 -- 2 ENE 26.8 26.4 30.229 0 0
3/30/18 0:30 25.8 26.8 25.7 80 20.5 1 N 5 N 25.8 25.5 30.235 0 0
3/30/18 1:00 24.5 25.8 24.5 84 20.4 3 NNE 7 NNE 20.8 24.3 30.236 0 0
3/30/18 1:30 24 24.5 24 86 20.4 3 NNE 6 NNW 20.3 23.8 30.23 0 0
3/30/18 2:00 23.1 24 23.1 86 19.5 3 N 9 N 19.2 22.9 30.231 0 0
3/30/18 2:30 21.4 23.1 21.4 86 17.9 6 N 12 NE 13.6 21.2 30.228 0 0
3/30/18 3:00 21 21.5 20.9 86 17.5 5 N 13 N 14.2 20.8 30.239 0 0
3/30/18 3:30 19.6 21 19.6 86 16.1 6 N 13 N 11.5 19.4 30.23 0 0
3/30/18 4:00 18.6 19.7 18.6 86 15.1 7 NNE 13 NNE 9.3 18.4 30.225 0 0
3/30/18 4:30 17.6 18.6 17.6 85 13.9 9 NNE 16 NE 6.6 17.4 30.22 0 0
3/30/18 5:00 17.1 17.7 17.1 84 13.1 8 NNE 16 N 6.7 17 30.228 0 0
3/30/18 5:30 16.6 17.1 16.6 84 12.6 8 NNE 14 N 6.1 16.5 30.236 0 0
3/30/18 6:00 15.8 16.6 15.7 84 11.8 8 NNE 15 NNE 5.1 15.7 30.241 0 0
3/30/18 6:30 15.3 15.8 15.3 83 11.1 7 N 14 NNW 5.4 15.2 30.252 0 0
3/30/18 7:00 14.3 15.4 14.3 82 9.8 7 N 15 N 4.2 14.1 30.257 0 0
3/30/18 7:30 14.3 14.3 14.1 82 9.8 6 N 13 N 5.2 14.1 30.259 0 0
3/30/18 8:00 14.6 14.7 14.3 81 9.8 6 N 13 N 5.5 14.4 30.271 0 0
3/30/18 8:30 14.4 14.6 14 79 9.1 5 N 13 N 6.4 14.2 30.28 0 0
3/30/18 9:00 14 14.5 14 78 8.4 5 N 11 N 5.9 13.8 30.284 0 0
3/30/18 9:30 15 15.1 13.6 73 7.9 4 N 11 N 8.4 14.8 30.281 0 0
3/30/18 10:00 15.9 16.3 15 70 7.8 5 N 13 NNE 8.2 15.6 30.281 0 0
3/30/18 10:30 16.1 16.8 15.9 68 7.4 5 N 11 N 8.4 15.8 30.288 0 0
3/30/18 11:00 16.6 16.6 15.9 67 7.5 5 N 11 NNW 9 16.3 30.297 0 0
3/30/18 11:30 16.8 17.1 16.5 67 7.7 5 N 11 N 9.2 16.5 30.292 0 0
3/30/18 12:00 16.9 17.3 16.7 66 7.5 4 N 11 N 10.6 16.6 30.287 0 0
3/30/18 12:30 17.6 17.6 16.9 69 9.2 4 N 10 N 11.4 17.3 30.28 0 0
3/30/18 13:00 18 18.2 17.1 69 9.5 5 NNE 11 NNW 10.6 17.7 30.271 0 0
3/30/18 13:30 17.6 18 17.4 67 8.5 5 NNE 11 NNE 10.2 17.3 30.261 0 0
3/30/18 14:00 18 18.4 17.3 65 8.2 4 NNE 9 N 11.9 17.6 30.252 0 0
3/30/18 14:30 18.5 18.9 17.9 64 8.3 3 NNE 9 NNW 14 18.1 30.24 0 0
3/30/18 15:00 18.4 19 18.2 60 6.8 4 NE 9 N 12.4 18 30.226 0 0
3/30/18 15:30 18 18.4 17.7 60 6.4 3 NNE 8 N 13.5 17.6 30.206 0 0
3/30/18 16:00 18.2 18.6 17.8 61 7 3 NNE 8 N 13.7 17.8 30.189 0 0
3/30/18 16:30 18.7 18.8 17.9 62 7.8 3 NE 8 N 14.3 18.3 30.173 0 0
3/30/18 17:00 17.6 18.8 17.4 59 5.7 3 NE 6 NE 13 17.2 30.162 0 0
3/30/18 17:30 17.6 18 17.3 61 6.4 2 ENE 5 NE 15.1 17.2 30.142 0 0
3/30/18 18:00 17.5 17.7 17.3 62 6.7 2 ENE 6 NE 15 17.1 30.119 0 0
3/30/18 18:30 17.6 17.7 17.3 63 7.1 3 NE 6 ENE 13 17.2 30.11 0 0
3/30/18 19:00 17.2 17.6 17.1 65 7.4 2 NE 5 NE 14.7 16.9 30.096 0 0
3/30/18 19:30 17.2 17.3 17 65 7.4 1 NE 4 NE 17.2 16.9 30.087 0 0
3/30/18 20:00 17.3 17.3 17.1 66 7.9 2 NE 4 NE 14.8 17 30.064 0 0
3/30/18 20:30 17.7 17.7 17.3 69 9.2 2 ENE 6 NE 15.3 17.4 30.042 0 0
3/30/18 21:00 18.2 18.2 17.6 69 9.7 3 NE 8 ENE 13.7 17.9 30.052 0 0
3/30/18 21:30 18.2 18.5 18.2 72 10.7 4 NNE 11 NE 12.1 17.9 30.048 0 0
3/30/18 22:00 17.2 18.2 17.2 80 12.1 4 NNE 10 NE 11 17 30.037 0 0
3/30/18 22:30 17 17.3 16.9 83 12.7 5 NNE 11 N 9.5 16.9 30.035 0 0
3/30/18 23:00 17.2 17.2 16.9 84 13.2 8 NNE 15 NNW 6.8 17.1 30.036 0 0
3/30/18 23:30 17.1 17.2 17.1 84 13.1 8 NNE 16 NNE 6.7 17 30.033 0 0
3/31/18 0:00 16.5 17.1 16.5 85 12.8 8 NNE 16 N 6 16.4 30.035 0 0
3/31/18 0:30 16.7 16.7 16.4 85 13 10 NNE 20 N 4.8 16.6 30.026 0 0
3/31/18 1:00 16.7 16.8 16.7 85 13 10 NNE 17 NNE 4.8 16.6 30.03 0 0
3/31/18 1:30 16.1 16.8 16.1 85 12.4 11 N 19 N 3.4 16 30.044 0 0
3/31/18 2:00 15 16.1 15 85 11.3 10 N 19 NNW 2.7 14.9 30.062 0 0
3/31/18 2:30 14.9 15.1 14.9 85 11.2 11 N 22 NNW 1.9 14.8 30.081 0 0
3/31/18 3:00 14.6 14.9 14.5 85 10.9 10 N 23 NNW 2.2 14.5 30.088 0 0
3/31/18 3:30 14.6 14.7 14.5 85 10.9 11 N 21 N 1.5 14.5 30.091 0 0
3/31/18 4:00 14.6 14.7 14.5 85 10.9 9 N 16 N 2.9 14.5 30.101 0 0
3/31/18 4:30 14.6 14.8 14.6 84 10.6 8 N 18 N 3.7 14.5 30.131 0 0
3/31/18 5:00 14.5 14.7 14.5 84 10.5 6 N 15 N 5.4 14.4 30.144 0 0
3/31/18 5:30 13.6 14.5 13.6 83 9.4 5 NNW 13 N 5.5 13.5 30.159 0 0
3/31/18 6:00 12.3 13.6 12.3 81 7.6 4 N 12 N 5.3 12.1 30.177 0 0
3/31/18 6:30 11.7 12.3 11.7 80 6.7 3 NNW 12 N 6.4 11.5 30.188 0 0
3/31/18 7:00 12.2 12.2 11.3 81 7.5 3 NNW 9 NNW 6.9 12 30.211 0 0
3/31/18 7:30 13 13.2 12.2 82 8.5 4 NW 12 WNW 6.1 12.8 30.233 0 0
3/31/18 8:00 12.7 13.2 12.7 79 7.4 5 WNW 15 NW 4.4 12.5 30.244 0 0
3/31/18 8:30 10.5 12.6 10.4 74 3.8 7 WNW 20 NW -0.4 10.3 30.258 0 0
3/31/18 9:00 9.9 10.7 9.5 71 2.4 7 WNW 15 WNW -1.1 9.7 30.285 0 0
3/31/18 9:30 10.1 10.3 9.9 69 1.9 7 NW 17 WNW -0.9 9.9 30.294 0 0
3/31/18 10:00 9.7 10.3 9.6 67 0.9 8 WNW 17 WNW -2.3 9.5 30.308 0 0
3/31/18 10:30 10.4 10.4 9.7 66 1.3 8 WNW 21 NW -1.5 10.1 30.321 0 0
3/31/18 11:00 11.4 11.4 10.3 64 1.6 8 WNW 19 WNW -0.2 11.1 30.33 0 0
3/31/18 11:30 12.5 12.5 11.3 62 1.9 7 WNW 16 WNW 2 12.2 30.323 0 0
3/31/18 12:00 12.3 14.2 12.3 62 1.7 7 WNW 17 WNW 1.8 12 30.333 0 0
3/31/18 12:30 13 13.3 12.1 63 2.8 8 WNW 18 NW 1.7 12.7 30.336 0 0
3/31/18 13:00 12.8 13.2 12.4 64 2.9 9 WNW 18 WNW 0.7 12.5 30.342 0 0
3/31/18 13:30 13.5 13.8 12.8 62 2.9 9 WNW 18 WNW 1.5 13.2 30.343 0 0
3/31/18 14:00 13.8 13.9 13.1 63 3.5 10 WNW 19 NW 1.2 13.5 30.344 0 0
3/31/18 14:30 14.9 15.2 13.7 58 2.8 10 WNW 21 WNW 2.5 14.5 30.346 0 0
3/31/18 15:00 15.1 15.7 14.6 57 2.6 10 WNW 21 NW 2.8 14.7 30.344 0 0
3/31/18 15:30 15.1 15.7 14.7 58 3 11 WNW 21 W 2.1 14.7 30.341 0 0
3/31/18 16:00 15.4 15.4 14.7 59 3.6 11 WNW 21 NW 2.5 15 30.335 0 0
3/31/18 16:30 15.4 15.5 14.9 60 4 11 WNW 23 WNW 2.5 15 30.329 0 0
3/31/18 17:00 16.3 16.5 15.3 61 5.2 10 WNW 21 WNW 4.3 15.9 30.326 0 0
3/31/18 17:30 16.4 17 16 62 5.6 11 WNW 24 W 3.8 16 30.32 0 0
3/31/18 18:00 16.2 16.6 16.1 63 5.8 11 WNW 24 WNW 3.5 15.9 30.319 0 0
3/31/18 18:30 15.6 16.4 15.5 65 5.9 9 WNW 22 WNW 4.1 15.3 30.323 0 0
3/31/18 19:00 14.5 15.5 14.5 66 5.2 10 WNW 25 NW 2 14.2 30.319 0 0
3/31/18 19:30 13.6 14.4 13.6 67 4.7 9 WNW 20 WNW 1.6 13.3 30.317 0 0
3/31/18 20:00 12.8 13.6 12.8 70 4.9 8 WNW 18 WNW 1.5 12.5 30.322 0 0
3/31/18 20:30 12.2 12.8 12.2 71 4.6 8 WNW 17 WNW 0.7 12 30.322 0 0
3/31/18 21:00 11.9 12.2 11.8 71 4.3 8 WNW 15 W 0.4 11.7 30.324 0 0
3/31/18 21:30 11.6 11.9 11.6 71 4 7 WNW 15 W 0.9 11.4 30.327 0 0
3/31/18 22:00 11.7 11.7 11.3 71 4.1 7 W 16 WSW 1 11.5 30.326 0 0
3/31/18 22:30 11.4 11.8 11.4 72 4.1 7 W 15 W 0.7 11.2 30.326 0 0
3/31/18 23:00 10.4 11.5 10.4 72 3.2 6 W 14 WNW 0.5 10.2 30.324 0 0
3/31/18 23:30 9.9 10.3 9.8 72 2.7 6 W 14 W -0.1 9.7 30.324 0 0
4/1/18 0:00 10.2 10.3 9.9 72 3 7 W 14 WSW -0.8 10 30.311 0 0
4/1/18 0:30 10.7 10.7 10.2 71 3.1 8 W 17 WNW -1.1 10.5 30.307 0 0